Observation data for Fort Chadbourne on 02/11/2018      Previous  Date       Current Mesonet Observations  Soil Data  Daily Summary Page  Observations in Plain Language
KCH1 110600Z 04008KT M02/M09 A2999 RMK A01 T10231091  RH  060%=      5-min Rain = 0
KCH1 110601Z 03005KT M02/M09 A2999 RMK A01 T10241091  RH  060%=      5-min Rain = 0
KCH1 110602Z 04006KT M02/M09 A2999 RMK A01 T10241090  RH  060%=      5-min Rain = 0
KCH1 110603Z 04008KT M02/M09 A2999 RMK A01 T10241090  RH  060%=      5-min Rain = 0
KCH1 110604Z 03009KT M03/M09 A2999 RMK A01 T10251091  RH  060%=      5-min Rain = 0
KCH1 110605Z 04006KT M03/M09 A30 RMK A01 T10251091  RH  060%=      5-min Rain = 0
KCH1 110606Z 04008KT M03/M09 A30 RMK A01 T10251091  RH  060%=      5-min Rain = 0
KCH1 110607Z 05011KT M03/M09 A30 RMK A01 T10251091  RH  061%=      5-min Rain = 0
KCH1 110608Z 04007KT M03/M09 A2999 RMK A01 T10251091  RH  060%=      5-min Rain = 0
KCH1 110609Z 05009KT M02/M09 A2999 RMK A01 T10241090  RH  060%=      5-min Rain = 0
KCH1 110610Z 04010KT M02/M09 A2999 RMK A01 T10241090  RH  060%=      5-min Rain = 0
KCH1 110611Z 05010KT M02/M09 A2999 RMK A01 T10241090  RH  060%=      5-min Rain = 0
KCH1 110612Z 04008KT M02/M09 A30 RMK A01 T10231090  RH  060%=      5-min Rain = 0
KCH1 110613Z 04006KT M02/M09 A30 RMK A01 T10231090  RH  060%=      5-min Rain = 0
KCH1 110614Z 04006KT M02/M09 A30 RMK A01 T10221089  RH  060%=      5-min Rain = 0
KCH1 110615Z 03008KT M02/M09 A30 RMK A01 T10221089  RH  060%=      5-min Rain = 0
KCH1 110616Z 04007KT M02/M09 A30 RMK A01 T10221090  RH  060%=      5-min Rain = 0
KCH1 110617Z 05007KT M02/M09 A30 RMK A01 T10221090  RH  059%=      5-min Rain = 0
KCH1 110618Z 05008KT M02/M09 A2999 RMK A01 T10221090  RH  059%=      5-min Rain = 0
KCH1 110619Z 05008KT M02/M09 A2999 RMK A01 T10221090  RH  059%=      5-min Rain = 0
KCH1 110620Z 04005KT M02/M09 A2999 RMK A01 T10221090  RH  060%=      5-min Rain = 0
KCH1 110621Z 04007KT M02/M09 A30 RMK A01 T10221090  RH  060%=      5-min Rain = 0
KCH1 110622Z 04006KT M02/M09 A30 RMK A01 T10221090  RH  060%=      5-min Rain = 0
KCH1 110623Z 04006KT M02/M09 A30 RMK A01 T10221091  RH  059%=      5-min Rain = 0
KCH1 110624Z 04006KT M02/M09 A30 RMK A01 T10221090  RH  059%=      5-min Rain = 0
KCH1 110625Z 04006KT M02/M09 A2999 RMK A01 T10221090  RH  059%=      5-min Rain = 0
KCH1 110626Z 03006KT M02/M09 A30 RMK A01 T10221091  RH  059%=      5-min Rain = 0
KCH1 110627Z 03006KT M02/M09 A30 RMK A01 T10221091  RH  059%=      5-min Rain = 0
KCH1 110628Z 03007KT M02/M09 A30 RMK A01 T10221091  RH  059%=      5-min Rain = 0
KCH1 110629Z 03006KT M02/M09 A2999 RMK A01 T10211091  RH  059%=      5-min Rain = 0
KCH1 110630Z 05008KT M02/M09 A2999 RMK A01 T10211091  RH  059%=      5-min Rain = 0
KCH1 110631Z 04009KT M02/M09 A2999 RMK A01 T10211091  RH  059%=      5-min Rain = 0
KCH1 110632Z 03012KT M02/M09 A2999 RMK A01 T10211091  RH  059%=      5-min Rain = 0
KCH1 110633Z 03013KT M02/M09 A2999 RMK A01 T10211092  RH  058%=      5-min Rain = 0
KCH1 110634Z 03010KT M02/M09 A2999 RMK A01 T10221094  RH  058%=      5-min Rain = 0
KCH1 110635Z 04012KT M02/M09 A2999 RMK A01 T10221094  RH  058%=      5-min Rain = 0
KCH1 110636Z 04016KT M02/M09 A2999 RMK A01 T10221094  RH  058%=      5-min Rain = 0
KCH1 110637Z 04013KT M02/M09 A2999 RMK A01 T10221094  RH  058%=      5-min Rain = 0
KCH1 110638Z 04015KT M02/M10 A2999 RMK A01 T10231095  RH  058%=      5-min Rain = 0
KCH1 110639Z 04012KT M02/M10 A2999 RMK A01 T10231095  RH  058%=      5-min Rain = 0
KCH1 110640Z 04010KT M02/M09 A30 RMK A01 T10231094  RH  058%=      5-min Rain = 0
KCH1 110641Z 04012G18KT M02/M09 A30 RMK A01 T10231094  RH  058%=      5-min Rain = 0
KCH1 110642Z 02007KT M02/M10 A30 RMK A01 T10231095  RH  058%=      5-min Rain = 0
KCH1 110643Z 04008G14KT M02/M10 A30 RMK A01 T10231095  RH  058%=      5-min Rain = 0
KCH1 110644Z 04011KT M02/M10 A30 RMK A01 T10231095  RH  058%=      5-min Rain = 0
KCH1 110645Z 03011G16KT M02/M10 A2999 RMK A01 T10231095  RH  058%=      5-min Rain = 0
KCH1 110646Z 04011KT M02/M10 A2999 RMK A01 T10231095  RH  058%=      5-min Rain = 0
KCH1 110647Z 04011KT M02/M10 A2999 RMK A01 T10231095  RH  058%=      5-min Rain = 0
KCH1 110648Z 05009G15KT M02/M10 A2999 RMK A01 T10231095  RH  058%=      5-min Rain = 0
KCH1 110649Z 03010KT M02/M10 A2999 RMK A01 T10231095  RH  058%=      5-min Rain = 0
KCH1 110650Z 03010KT M02/M10 A30 RMK A01 T10231095  RH  058%=      5-min Rain = 0
KCH1 110651Z 03010KT M02/M10 A30 RMK A01 T10241096  RH  058%=      5-min Rain = 0
KCH1 110652Z 03010KT M02/M10 A30 RMK A01 T10241095  RH  058%=      5-min Rain = 0
KCH1 110653Z 03012G18KT M02/M10 A30 RMK A01 T10241095  RH  058%=      5-min Rain = 0
KCH1 110654Z 02012KT M02/M10 A2999 RMK A01 T10241097  RH  058%=      5-min Rain = 0
KCH1 110655Z 03011KT M03/M10 A30 RMK A01 T10251097  RH  058%=      5-min Rain = 0
KCH1 110656Z 03010KT M03/M10 A30 RMK A01 T10251097  RH  058%=      5-min Rain = 0
KCH1 110657Z 04009KT M03/M10 A30 RMK A01 T10251097  RH  058%=      5-min Rain = 0
KCH1 110658Z 04010G16KT M03/M10 A30 RMK A01 T10251096  RH  058%=      5-min Rain = 0
KCH1 110659Z 03011KT M03/M10 A30 RMK A01 T10251097  RH  058%=      5-min Rain = 0
KCH1 110700Z 04012KT M03/M10 A30 RMK A01 T10251097  RH  058%=      5-min Rain = 0
KCH1 110701Z 04010KT M03/M10 A30 RMK A01 T10261098  RH  058%=      5-min Rain = 0
KCH1 110702Z 04011KT M03/M10 A30 RMK A01 T10261097  RH  058%=      5-min Rain = 0
KCH1 110703Z 03009KT M03/M10 A30 RMK A01 T10251097  RH  058%=      5-min Rain = 0
KCH1 110704Z 03010KT M03/M10 A3001 RMK A01 T10261097  RH  058%=      5-min Rain = 0
KCH1 110705Z 04009KT M03/M10 A3001 RMK A01 T10261097  RH  058%=      5-min Rain = 0
KCH1 110706Z 04009KT M03/M10 A3001 RMK A01 T10261097  RH  058%=      5-min Rain = 0
KCH1 110707Z 04013KT M03/M10 A3001 RMK A01 T10251097  RH  058%=      5-min Rain = 0
KCH1 110708Z 04012KT M03/M10 A3001 RMK A01 T10261098  RH  058%=      5-min Rain = 0
KCH1 110709Z 03012KT M03/M10 A3001 RMK A01 T10261098  RH  058%=      5-min Rain = 0
KCH1 110710Z 04017KT M03/M10 A3001 RMK A01 T10261098  RH  058%=      5-min Rain = 0
KCH1 110711Z 03013G19KT M03/M10 A3001 RMK A01 T10271099  RH  058%=      5-min Rain = 0
KCH1 110712Z 04014KT M03/M10 A3001 RMK A01 T10271099  RH  058%=      5-min Rain = 0
KCH1 110713Z 04014KT M03/M10 A3001 RMK A01 T10271099  RH  058%=      5-min Rain = 0
KCH1 110714Z 04009KT M03/M10 A3001 RMK A01 T10281099  RH  058%=      5-min Rain = 0
KCH1 110715Z 04011KT M03/M10 A3001 RMK A01 T10281098  RH  058%=      5-min Rain = 0
KCH1 110716Z 04012KT M03/M10 A3001 RMK A01 T10281099  RH  058%=      5-min Rain = 0
KCH1 110717Z 03009KT M03/M10 A3001 RMK A01 T10281099  RH  058%=      5-min Rain = 0
KCH1 110718Z 04010KT M03/M10 A3001 RMK A01 T10281099  RH  058%=      5-min Rain = 0
KCH1 110719Z 04012G17KT M03/M10 A3001 RMK A01 T10281099  RH  058%=      5-min Rain = 0
KCH1 110720Z 04012KT M03/M10 A3001 RMK A01 T10281099  RH  058%=      5-min Rain = 0
KCH1 110721Z 04011G18KT M03/M10 A3001 RMK A01 T10281099  RH  058%=      5-min Rain = 0
KCH1 110722Z 05016KT M03/M10 A3001 RMK A01 T10281099  RH  058%=      5-min Rain = 0
KCH1 110723Z 03013KT M03/M10 A3001 RMK A01 T10281099  RH  058%=      5-min Rain = 0
KCH1 110724Z 03011KT M03/M10 A3001 RMK A01 T10281100  RH  058%=      5-min Rain = 0
KCH1 110725Z 02011G16KT M03/M10 A3001 RMK A01 T10281100  RH  058%=      5-min Rain = 0
KCH1 110726Z 04013KT M03/M10 A3001 RMK A01 T10281100  RH  058%=      5-min Rain = 0
KCH1 110727Z 05014KT M03/M10 A3001 RMK A01 T10291100  RH  058%=      5-min Rain = 0
KCH1 110728Z 04014KT M03/M10 A3001 RMK A01 T10291101  RH  058%=      5-min Rain = 0
KCH1 110729Z 03011KT M03/M10 A3001 RMK A01 T10301101  RH  058%=      5-min Rain = 0
KCH1 110730Z 03007KT M03/M10 A3002 RMK A01 T10301101  RH  058%=      5-min Rain = 0
KCH1 110731Z 04011KT M03/M10 A3002 RMK A01 T10301100  RH  058%=      5-min Rain = 0
KCH1 110732Z 03011KT M03/M10 A3002 RMK A01 T10291100  RH  058%=      5-min Rain = 0
KCH1 110733Z 04012KT M03/M10 A3002 RMK A01 T10291101  RH  058%=      5-min Rain = 0
KCH1 110734Z 04012KT M03/M10 A3002 RMK A01 T10301101  RH  058%=      5-min Rain = 0
KCH1 110735Z 04011KT M03/M10 A3002 RMK A01 T10301102  RH  058%=      5-min Rain = 0
KCH1 110736Z 03010KT M03/M10 A3002 RMK A01 T10311102  RH  058%=      5-min Rain = 0
KCH1 110737Z 03006KT M03/M10 A3002 RMK A01 T10311103  RH  058%=      5-min Rain = 0
KCH1 110738Z 02012KT M03/M10 A3002 RMK A01 T10311102  RH  058%=      5-min Rain = 0
KCH1 110739Z 02012KT M03/M10 A3002 RMK A01 T10311102  RH  058%=      5-min Rain = 0
KCH1 110740Z 02012G17KT M03/M10 A3002 RMK A01 T10321103  RH  058%=      5-min Rain = 0
KCH1 110741Z 03013KT M03/M10 A3002 RMK A01 T10321104  RH  058%=      5-min Rain = 0
KCH1 110742Z 05010KT M03/M10 A3002 RMK A01 T10331104  RH  058%=      5-min Rain = 0
KCH1 110743Z 03010G15KT M03/M10 A3002 RMK A01 T10331103  RH  058%=      5-min Rain = 0
KCH1 110744Z 02011G17KT M03/M10 A3002 RMK A01 T10331103  RH  058%=      5-min Rain = 0
KCH1 110745Z 03013KT M03/M10 A3002 RMK A01 T10331103  RH  058%=      5-min Rain = 0
KCH1 110746Z 03012KT M03/M10 A3002 RMK A01 T10331104  RH  058%=      5-min Rain = 0
KCH1 110747Z 02012KT M03/M10 A3002 RMK A01 T10341104  RH  058%=      5-min Rain = 0
KCH1 110748Z 02013KT M03/M10 A3002 RMK A01 T10341104  RH  058%=      5-min Rain = 0
KCH1 110749Z 04014KT M03/M10 A3002 RMK A01 T10341104  RH  058%=      5-min Rain = 0
KCH1 110750Z 04015KT M04/M10 A3003 RMK A01 T10351104  RH  059%=      5-min Rain = 0
KCH1 110751Z 03015KT M04/M10 A3003 RMK A01 T10351104  RH  059%=      5-min Rain = 0
KCH1 110752Z 04011KT M04/M10 A3003 RMK A01 T10351104  RH  059%=      5-min Rain = 0
KCH1 110753Z 03012KT M04/M10 A3003 RMK A01 T10351104  RH  059%=      5-min Rain = 0
KCH1 110754Z 04012KT M04/M10 A3003 RMK A01 T10351104  RH  059%=      5-min Rain = 0
KCH1 110755Z 03011KT M04/M10 A3003 RMK A01 T10351104  RH  059%=      5-min Rain = 0
KCH1 110756Z 04012KT M04/M10 A3003 RMK A01 T10351104  RH  059%=      5-min Rain = 0
KCH1 110757Z 04012G17KT M04/M11 A3003 RMK A01 T10351105  RH  059%=      5-min Rain = 0
KCH1 110758Z 04009KT M04/M10 A3003 RMK A01 T10351104  RH  059%=      5-min Rain = 0
KCH1 110759Z 04012KT M04/M11 A3003 RMK A01 T10351105  RH  059%=      5-min Rain = 0
KCH1 110800Z 03010KT M04/M11 A3003 RMK A01 T10351106  RH  058%=      5-min Rain = 0
KCH1 110801Z 02010KT M04/M11 A3003 RMK A01 T10361106  RH  058%=      5-min Rain = 0
KCH1 110802Z 01009G14KT M04/M11 A3003 RMK A01 T10361107  RH  058%=      5-min Rain = 0
KCH1 110803Z 02015KT M04/M11 A3003 RMK A01 T10361108  RH  058%=      5-min Rain = 0
KCH1 110804Z 03012KT M04/M11 A3003 RMK A01 T10371108  RH  058%=      5-min Rain = 0
KCH1 110805Z 03010KT M04/M11 A3003 RMK A01 T10371109  RH  058%=      5-min Rain = 0
KCH1 110806Z 03009KT M04/M11 A3004 RMK A01 T10381108  RH  058%=      5-min Rain = 0
KCH1 110807Z 03008G13KT M04/M11 A3004 RMK A01 T10371108  RH  058%=      5-min Rain = 0
KCH1 110808Z 03010KT M04/M11 A3004 RMK A01 T10371107  RH  058%=      5-min Rain = 0
KCH1 110809Z 04011KT M04/M11 A3003 RMK A01 T10381108  RH  058%=      5-min Rain = 0
KCH1 110810Z 03009KT M04/M11 A3003 RMK A01 T10381108  RH  058%=      5-min Rain = 0
KCH1 110811Z 03007KT M04/M11 A3003 RMK A01 T10381108  RH  058%=      5-min Rain = 0
KCH1 110812Z 03007KT M04/M11 A3004 RMK A01 T10381108  RH  058%=      5-min Rain = 0
KCH1 110813Z 02009KT M04/M11 A3004 RMK A01 T10381108  RH  058%=      5-min Rain = 0
KCH1 110814Z 03009KT M04/M11 A3004 RMK A01 T10381108  RH  058%=      5-min Rain = 0
KCH1 110815Z 02009KT M04/M11 A3004 RMK A01 T10381109  RH  058%=      5-min Rain = 0
KCH1 110816Z 03007KT M04/M11 A3004 RMK A01 T10391109  RH  058%=      5-min Rain = 0
KCH1 110817Z 02010G15KT M04/M11 A3004 RMK A01 T10391109  RH  058%=      5-min Rain = 0
KCH1 110818Z 02008G14KT M04/M11 A3004 RMK A01 T10391109  RH  058%=      5-min Rain = 0
KCH1 110819Z 02008KT M04/M11 A3004 RMK A01 T10391109  RH  058%=      5-min Rain = 0
KCH1 110820Z 02009KT M04/M11 A3004 RMK A01 T10391109  RH  058%=      5-min Rain = 0
KCH1 110821Z 02011KT M04/M11 A3004 RMK A01 T10391109  RH  058%=      5-min Rain = 0
KCH1 110822Z 03009KT M04/M11 A3004 RMK A01 T10391109  RH  058%=      5-min Rain = 0
KCH1 110823Z 03007KT M04/M11 A3004 RMK A01 T10401110  RH  058%=      5-min Rain = 0
KCH1 110824Z 01007KT M04/M11 A3004 RMK A01 T10401110  RH  058%=      5-min Rain = 0
KCH1 110825Z 03009KT M04/M11 A3004 RMK A01 T10401110  RH  059%=      5-min Rain = 0
KCH1 110826Z 03009KT M04/M11 A3004 RMK A01 T10401110  RH  058%=      5-min Rain = 0
KCH1 110827Z 03007KT M04/M11 A3004 RMK A01 T10401110  RH  058%=      5-min Rain = 0
KCH1 110828Z 03006KT M04/M11 A3004 RMK A01 T10411110  RH  058%=      5-min Rain = 0
KCH1 110829Z 03005KT M04/M11 A3004 RMK A01 T10411110  RH  058%=      5-min Rain = 0
KCH1 110830Z 02006KT M04/M11 A3004 RMK A01 T10411110  RH  058%=      5-min Rain = 0
KCH1 110831Z 03006KT M04/M11 A3004 RMK A01 T10401110  RH  058%=      5-min Rain = 0
KCH1 110832Z 03008KT M04/M11 A3004 RMK A01 T10401110  RH  058%=      5-min Rain = 0
KCH1 110833Z 02007KT M04/M11 A3004 RMK A01 T10401110  RH  058%=      5-min Rain = 0
KCH1 110834Z 03008KT M04/M11 A3004 RMK A01 T10411111  RH  058%=      5-min Rain = 0
KCH1 110835Z 02007KT M04/M11 A3004 RMK A01 T10411111  RH  058%=      5-min Rain = 0
KCH1 110836Z 03007KT M04/M11 A3004 RMK A01 T10411111  RH  058%=      5-min Rain = 0
KCH1 110837Z 01007KT M04/M11 A3004 RMK A01 T10411111  RH  058%=      5-min Rain = 0
KCH1 110838Z 01009KT M04/M11 A3003 RMK A01 T10411111  RH  058%=      5-min Rain = 0
KCH1 110839Z 02008KT M04/M11 A3003 RMK A01 T10411111  RH  058%=      5-min Rain = 0
KCH1 110840Z 00009KT M04/M11 A3003 RMK A01 T10411112  RH  058%=      5-min Rain = 0
KCH1 110841Z 01009KT M04/M11 A3004 RMK A01 T10411112  RH  058%=      5-min Rain = 0
KCH1 110842Z 01009KT M04/M11 A3004 RMK A01 T10411112  RH  058%=      5-min Rain = 0
KCH1 110843Z 01009KT M04/M11 A3004 RMK A01 T10411112  RH  058%=      5-min Rain = 0
KCH1 110844Z 01010KT M04/M11 A3004 RMK A01 T10411112  RH  058%=      5-min Rain = 0
KCH1 110845Z 02009KT M04/M11 A3004 RMK A01 T10411112  RH  057%=      5-min Rain = 0
KCH1 110846Z 02010KT M04/M11 A3004 RMK A01 T10411113  RH  057%=      5-min Rain = 0
KCH1 110847Z 03007KT M04/M11 A3004 RMK A01 T10401112  RH  057%=      5-min Rain = 0
KCH1 110848Z 02006KT M04/M11 A3004 RMK A01 T10401113  RH  057%=      5-min Rain = 0
KCH1 110849Z 01008KT M04/M11 A3004 RMK A01 T10401113  RH  057%=      5-min Rain = 0
KCH1 110850Z 01011KT M04/M11 A3004 RMK A01 T10401113  RH  057%=      5-min Rain = 0
KCH1 110851Z 02008KT M04/M11 A3004 RMK A01 T10401113  RH  057%=      5-min Rain = 0
KCH1 110852Z 02009KT M04/M11 A3004 RMK A01 T10401113  RH  057%=      5-min Rain = 0
KCH1 110853Z 01009KT M04/M11 A3004 RMK A01 T10401113  RH  057%=      5-min Rain = 0
KCH1 110854Z 01006KT M04/M11 A3004 RMK A01 T10401113  RH  057%=      5-min Rain = 0
KCH1 110855Z 01008KT M04/M11 A3004 RMK A01 T10401113  RH  057%=      5-min Rain = 0
KCH1 110856Z 01008KT M04/M11 A3004 RMK A01 T10391112  RH  057%=      5-min Rain = 0
KCH1 110857Z 01008KT M04/M11 A3004 RMK A01 T10391113  RH  057%=      5-min Rain = 0
KCH1 110858Z 02008KT M04/M11 A3004 RMK A01 T10391113  RH  057%=      5-min Rain = 0
KCH1 110859Z 01008KT M04/M11 A3004 RMK A01 T10391113  RH  057%=      5-min Rain = 0
KCH1 110900Z 36008KT M04/M11 A3004 RMK A01 T10391113  RH  057%=      5-min Rain = 0
KCH1 110901Z 35009KT M04/M11 A3004 RMK A01 T10391113  RH  057%=      5-min Rain = 0
KCH1 110902Z 36009KT M04/M11 A3004 RMK A01 T10391113  RH  057%=      5-min Rain = 0
KCH1 110903Z 00006KT M04/M11 A3005 RMK A01 T10391113  RH  056%=      5-min Rain = 0
KCH1 110904Z 00009KT M04/M11 A3004 RMK A01 T10391113  RH  057%=      5-min Rain = 0
KCH1 110905Z 01009KT M04/M11 A3004 RMK A01 T10391113  RH  057%=      5-min Rain = 0
KCH1 110906Z 01007KT M04/M11 A3005 RMK A01 T10391113  RH  057%=      5-min Rain = 0
KCH1 110907Z 01008KT M04/M11 A3004 RMK A01 T10391113  RH  057%=      5-min Rain = 0
KCH1 110908Z 02007KT M04/M11 A3005 RMK A01 T10391113  RH  056%=      5-min Rain = 0
KCH1 110909Z 02010KT M04/M11 A3004 RMK A01 T10391113  RH  057%=      5-min Rain = 0
KCH1 110910Z 01011KT M04/M11 A3005 RMK A01 T10391113  RH  056%=      5-min Rain = 0
KCH1 110911Z 02008KT M04/M11 A3005 RMK A01 T10391114  RH  056%=      5-min Rain = 0
KCH1 110912Z 02007KT M04/M11 A3005 RMK A01 T10391114  RH  056%=      5-min Rain = 0
KCH1 110913Z 02010G15KT M04/M11 A3005 RMK A01 T10391113  RH  056%=      5-min Rain = 0
KCH1 110914Z 02011KT M04/M11 A3005 RMK A01 T10391114  RH  056%=      5-min Rain = 0
KCH1 110915Z 03010G15KT M04/M11 A3005 RMK A01 T10391114  RH  056%=      5-min Rain = 0
KCH1 110916Z 02011KT M04/M11 A3005 RMK A01 T10391114  RH  056%=      5-min Rain = 0
KCH1 110917Z 02008KT M04/M11 A3005 RMK A01 T10401114  RH  056%=      5-min Rain = 0
KCH1 110918Z 02009KT M04/M11 A3005 RMK A01 T10401114  RH  056%=      5-min Rain = 0
KCH1 110919Z 02009KT M04/M11 A3005 RMK A01 T10401114  RH  056%=      5-min Rain = 0
KCH1 110920Z 02008KT M04/M11 A3005 RMK A01 T10401114  RH  056%=      5-min Rain = 0
KCH1 110921Z 03007KT M04/M11 A3005 RMK A01 T10401114  RH  056%=      5-min Rain = 0
KCH1 110922Z 03009KT M04/M11 A3005 RMK A01 T10401113  RH  057%=      5-min Rain = 0
KCH1 110923Z 02009KT M04/M11 A3005 RMK A01 T10401114  RH  057%=      5-min Rain = 0
KCH1 110924Z 02009KT M04/M11 A3005 RMK A01 T10401114  RH  057%=      5-min Rain = 0
KCH1 110925Z 02009KT M04/M11 A3005 RMK A01 T10401114  RH  056%=      5-min Rain = 0
KCH1 110926Z 03008KT M04/M11 A3005 RMK A01 T10401114  RH  057%=      5-min Rain = 0
KCH1 110927Z 02011KT M04/M11 A3005 RMK A01 T10401113  RH  057%=      5-min Rain = 0
KCH1 110928Z 02009KT M04/M11 A3005 RMK A01 T10401114  RH  057%=      5-min Rain = 0
KCH1 110929Z 02009G14KT M04/M11 A3005 RMK A01 T10401114  RH  057%=      5-min Rain = 0
KCH1 110930Z 02008KT M04/M11 A3005 RMK A01 T10411114  RH  057%=      5-min Rain = 0
KCH1 110931Z 02012KT M04/M11 A3005 RMK A01 T10411114  RH  057%=      5-min Rain = 0
KCH1 110932Z 02011KT M04/M11 A3006 RMK A01 T10411114  RH  057%=      5-min Rain = 0
KCH1 110933Z 02008KT M04/M11 A3006 RMK A01 T10411114  RH  057%=      5-min Rain = 0
KCH1 110934Z 03008KT M04/M11 A3006 RMK A01 T10411114  RH  057%=      5-min Rain = 0
KCH1 110935Z 01007KT M04/M11 A3006 RMK A01 T10421114  RH  057%=      5-min Rain = 0
KCH1 110936Z 01009KT M04/M11 A3006 RMK A01 T10411114  RH  057%=      5-min Rain = 0
KCH1 110937Z 01009G15KT M04/M11 A3006 RMK A01 T10421114  RH  057%=      5-min Rain = 0
KCH1 110938Z 02011KT M04/M11 A3006 RMK A01 T10421114  RH  057%=      5-min Rain = 0
KCH1 110939Z 01011KT M04/M11 A3006 RMK A01 T10421114  RH  057%=      5-min Rain = 0
KCH1 110940Z 00011KT M04/M11 A3006 RMK A01 T10411114  RH  057%=      5-min Rain = 0
KCH1 110941Z 01012KT M04/M11 A3006 RMK A01 T10421114  RH  057%=      5-min Rain = 0
KCH1 110942Z 01013KT M04/M11 A3006 RMK A01 T10421114  RH  057%=      5-min Rain = 0
KCH1 110943Z 01009G15KT M04/M12 A3006 RMK A01 T10431115  RH  057%=      5-min Rain = 0
KCH1 110944Z 01012G18KT M04/M11 A3006 RMK A01 T10431114  RH  057%=      5-min Rain = 0
KCH1 110945Z 02014KT M04/M11 A3006 RMK A01 T10431114  RH  057%=      5-min Rain = 0
KCH1 110946Z 01012KT M04/M11 A3006 RMK A01 T10431114  RH  058%=      5-min Rain = 0
KCH1 110947Z 02011KT M04/M11 A3006 RMK A01 T10431114  RH  058%=      5-min Rain = 0
KCH1 110948Z 02012KT M04/M11 A3006 RMK A01 T10441114  RH  058%=      5-min Rain = 0
KCH1 110949Z 02008KT M04/M11 A3006 RMK A01 T10441114  RH  058%=      5-min Rain = 0
KCH1 110950Z 02009G14KT M04/M11 A3006 RMK A01 T10441114  RH  058%=      5-min Rain = 0
KCH1 110951Z 01008G13KT M04/M11 A3006 RMK A01 T10441114  RH  058%=      5-min Rain = 0
KCH1 110952Z 02008KT M04/M11 A3006 RMK A01 T10441114  RH  058%=      5-min Rain = 0
KCH1 110953Z 02008KT M04/M11 A3006 RMK A01 T10441114  RH  058%=      5-min Rain = 0
KCH1 110954Z 01009KT M04/M11 A3006 RMK A01 T10441114  RH  058%=      5-min Rain = 0
KCH1 110955Z 01010KT M04/M11 A3006 RMK A01 T10441114  RH  058%=      5-min Rain = 0
KCH1 110956Z 01010KT M04/M11 A3006 RMK A01 T10441114  RH  058%=      5-min Rain = 0
KCH1 110957Z 01008KT M04/M12 A3006 RMK A01 T10441115  RH  058%=      5-min Rain = 0
KCH1 110958Z 01008KT M04/M12 A3006 RMK A01 T10441115  RH  058%=      5-min Rain = 0
KCH1 110959Z 01011G16KT M04/M11 A3006 RMK A01 T10441114  RH  058%=      5-min Rain = 0
KCH1 111000Z 00012KT M05/M12 A3006 RMK A01 T10451115  RH  058%=      5-min Rain = 0
KCH1 111001Z 01009G14KT M05/M12 A3006 RMK A01 T10451115  RH  058%=      5-min Rain = 0
KCH1 111002Z 01009KT M05/M12 A3006 RMK A01 T10451115  RH  058%=      5-min Rain = 0
KCH1 111003Z 02010KT M05/M12 A3006 RMK A01 T10451115  RH  058%=      5-min Rain = 0
KCH1 111004Z 01013KT M05/M12 A3006 RMK A01 T10451115  RH  058%=      5-min Rain = 0
KCH1 111005Z 00010KT M05/M12 A3006 RMK A01 T10451115  RH  058%=      5-min Rain = 0
KCH1 111006Z 02009KT M05/M12 A3006 RMK A01 T10451115  RH  058%=      5-min Rain = 0
KCH1 111007Z 01011KT M05/M12 A3006 RMK A01 T10451115  RH  058%=      5-min Rain = 0
KCH1 111008Z 36008KT M05/M12 A3006 RMK A01 T10451115  RH  058%=      5-min Rain = 0
KCH1 111009Z 01006G13KT M05/M12 A3006 RMK A01 T10451115  RH  058%=      5-min Rain = 0
KCH1 111010Z 36010KT M05/M12 A3007 RMK A01 T10451115  RH  058%=      5-min Rain = 0
KCH1 111011Z 00014KT M05/M12 A3007 RMK A01 T10451115  RH  058%=      5-min Rain = 0
KCH1 111012Z 01010KT M05/M12 A3007 RMK A01 T10451115  RH  058%=      5-min Rain = 0
KCH1 111013Z 02009KT M05/M12 A3007 RMK A01 T10461115  RH  058%=      5-min Rain = 0
KCH1 111014Z 02012KT M05/M11 A3007 RMK A01 T10451114  RH  059%=      5-min Rain = 0
KCH1 111015Z 02007G13KT M05/M11 A3007 RMK A01 T10451114  RH  058%=      5-min Rain = 0
KCH1 111016Z 01013G19KT M05/M11 A3007 RMK A01 T10451114  RH  059%=      5-min Rain = 0
KCH1 111017Z 01011KT M05/M11 A3007 RMK A01 T10451114  RH  059%=      5-min Rain = 0
KCH1 111018Z 02013KT M05/M11 A3007 RMK A01 T10451114  RH  059%=      5-min Rain = 0
KCH1 111019Z 01013KT M05/M11 A3007 RMK A01 T10451114  RH  059%=      5-min Rain = 0
KCH1 111020Z 02008G13KT M05/M11 A3007 RMK A01 T10451114  RH  059%=      5-min Rain = 0
KCH1 111021Z 01012KT M05/M11 A3007 RMK A01 T10451114  RH  059%=      5-min Rain = 0
KCH1 111022Z 01012KT M05/M11 A3007 RMK A01 T10451114  RH  059%=      5-min Rain = 0
KCH1 111023Z 02013KT M05/M11 A3007 RMK A01 T10461114  RH  059%=      5-min Rain = 0
KCH1 111024Z 01010KT M05/M11 A3007 RMK A01 T10461114  RH  059%=      5-min Rain = 0
KCH1 111025Z 01011KT M05/M12 A3007 RMK A01 T10461115  RH  059%=      5-min Rain = 0
KCH1 111026Z 01012KT M05/M11 A3007 RMK A01 T10461114  RH  059%=      5-min Rain = 0
KCH1 111027Z 01012G18KT M05/M11 A3007 RMK A01 T10461114  RH  059%=      5-min Rain = 0
KCH1 111028Z 01015KT M05/M12 A3007 RMK A01 T10461115  RH  059%=      5-min Rain = 0
KCH1 111029Z 01015KT M05/M12 A3007 RMK A01 T10461115  RH  059%=      5-min Rain = 0
KCH1 111030Z 02013KT M05/M12 A3007 RMK A01 T10461115  RH  059%=      5-min Rain = 0
KCH1 111031Z 03011G17KT M05/M12 A3007 RMK A01 T10471115  RH  059%=      5-min Rain = 0
KCH1 111032Z 02010KT M05/M12 A3007 RMK A01 T10471115  RH  059%=      5-min Rain = 0
KCH1 111033Z 03012KT M05/M12 A3008 RMK A01 T10461115  RH  059%=      5-min Rain = 0
KCH1 111034Z 01009KT M05/M11 A3008 RMK A01 T10461114  RH  059%=      5-min Rain = 0
KCH1 111035Z 02007KT M05/M11 A3008 RMK A01 T10461114  RH  059%=      5-min Rain = 0
KCH1 111036Z 36011KT M05/M12 A3008 RMK A01 T10461115  RH  059%=      5-min Rain = 0
KCH1 111037Z 01007KT M05/M12 A3008 RMK A01 T10461115  RH  059%=      5-min Rain = 0
KCH1 111038Z 01011G16KT M05/M11 A3008 RMK A01 T10461114  RH  059%=      5-min Rain = 0
KCH1 111039Z 01007KT M05/M11 A3008 RMK A01 T10461114  RH  059%=      5-min Rain = 0
KCH1 111040Z 01007KT M05/M11 A3008 RMK A01 T10461114  RH  059%=      5-min Rain = 0
KCH1 111041Z 01011KT M05/M11 A3008 RMK A01 T10461114  RH  059%=      5-min Rain = 0
KCH1 111042Z 01010G15KT M05/M11 A3008 RMK A01 T10461114  RH  059%=      5-min Rain = 0
KCH1 111043Z 01011KT M05/M11 A3008 RMK A01 T10461114  RH  059%=      5-min Rain = 0
KCH1 111044Z 01009KT M05/M11 A3008 RMK A01 T10461114  RH  059%=      5-min Rain = 0
KCH1 111045Z 00008KT M05/M11 A3008 RMK A01 T10461114  RH  059%=      5-min Rain = 0
KCH1 111046Z 01007KT M05/M11 A3009 RMK A01 T10461114  RH  059%=      5-min Rain = 0
KCH1 111047Z 01008KT M05/M11 A3009 RMK A01 T10461114  RH  059%=      5-min Rain = 0
KCH1 111048Z 00008KT M05/M11 A3009 RMK A01 T10461114  RH  059%=      5-min Rain = 0
KCH1 111049Z 00012KT M05/M12 A3009 RMK A01 T10461115  RH  059%=      5-min Rain = 0
KCH1 111050Z 01009KT M05/M12 A3009 RMK A01 T10461115  RH  059%=      5-min Rain = 0
KCH1 111051Z 00008KT M05/M12 A3009 RMK A01 T10461115  RH  059%=      5-min Rain = 0
KCH1 111052Z 01008KT M05/M11 A3009 RMK A01 T10461114  RH  059%=      5-min Rain = 0
KCH1 111053Z 01005KT M05/M11 A301 RMK A01 T10461114  RH  059%=      5-min Rain = 0
KCH1 111054Z 00007KT M05/M11 A301 RMK A01 T10461114  RH  059%=      5-min Rain = 0
KCH1 111055Z 36008KT M05/M11 A301 RMK A01 T10461114  RH  059%=      5-min Rain = 0
KCH1 111056Z 36009KT M05/M12 A3009 RMK A01 T10461115  RH  059%=      5-min Rain = 0
KCH1 111057Z 01009KT M05/M12 A3009 RMK A01 T10461115  RH  059%=      5-min Rain = 0
KCH1 111058Z 02006KT M05/M12 A3009 RMK A01 T10461115  RH  059%=      5-min Rain = 0
KCH1 111059Z 01007G13KT M05/M11 A3009 RMK A01 T10461114  RH  059%=      5-min Rain = 0
KCH1 111100Z 01011KT M05/M11 A3009 RMK A01 T10451114  RH  059%=      5-min Rain = 0
KCH1 111101Z 01012KT M05/M12 A3009 RMK A01 T10461115  RH  058%=      5-min Rain = 0
KCH1 111102Z 01013KT M05/M12 A3009 RMK A01 T10461115  RH  058%=      5-min Rain = 0
KCH1 111103Z 02014KT M05/M12 A3009 RMK A01 T10461115  RH  059%=      5-min Rain = 0
KCH1 111104Z 02010KT M05/M12 A3009 RMK A01 T10461115  RH  059%=      5-min Rain = 0
KCH1 111105Z 02013KT M05/M12 A3009 RMK A01 T10461115  RH  059%=      5-min Rain = 0
KCH1 111106Z 01011KT M05/M12 A3008 RMK A01 T10461115  RH  059%=      5-min Rain = 0
KCH1 111107Z 01012KT M05/M12 A3008 RMK A01 T10461115  RH  059%=      5-min Rain = 0
KCH1 111108Z 02013KT M05/M12 A3008 RMK A01 T10471116  RH  059%=      5-min Rain = 0
KCH1 111109Z 02012KT M05/M12 A3009 RMK A01 T10471115  RH  059%=      5-min Rain = 0
KCH1 111110Z 02013KT M05/M12 A3009 RMK A01 T10471115  RH  059%=      5-min Rain = 0
KCH1 111111Z 02013KT M05/M12 A3009 RMK A01 T10471115  RH  059%=      5-min Rain = 0
KCH1 111112Z 02008KT M05/M12 A3009 RMK A01 T10471115  RH  059%=      5-min Rain = 0
KCH1 111113Z 02009KT M05/M12 A3009 RMK A01 T10471115  RH  059%=      5-min Rain = 0
KCH1 111114Z 36012G17KT M05/M12 A3009 RMK A01 T10461115  RH  059%=      5-min Rain = 0
KCH1 111115Z 01011KT M05/M12 A3009 RMK A01 T10461115  RH  059%=      5-min Rain = 0
KCH1 111116Z 01010KT M05/M12 A3009 RMK A01 T10471116  RH  059%=      5-min Rain = 0
KCH1 111117Z 01013KT M05/M12 A3009 RMK A01 T10471116  RH  059%=      5-min Rain = 0
KCH1 111118Z 01012KT M05/M12 A3009 RMK A01 T10471115  RH  059%=      5-min Rain = 0
KCH1 111119Z 01009KT M05/M12 A3009 RMK A01 T10471115  RH  059%=      5-min Rain = 0
KCH1 111120Z 02008G14KT M05/M12 A3009 RMK A01 T10471115  RH  059%=      5-min Rain = 0
KCH1 111121Z 02012KT M05/M12 A3009 RMK A01 T10471115  RH  059%=      5-min Rain = 0
KCH1 111122Z 01011KT M05/M12 A3009 RMK A01 T10471115  RH  059%=      5-min Rain = 0
KCH1 111123Z 02014KT M05/M12 A3009 RMK A01 T10471116  RH  059%=      5-min Rain = 0
KCH1 111124Z 02014KT M05/M12 A3009 RMK A01 T10471116  RH  059%=      5-min Rain = 0
KCH1 111125Z 01012KT M05/M12 A3009 RMK A01 T10471115  RH  059%=      5-min Rain = 0
KCH1 111126Z 02010KT M05/M12 A3009 RMK A01 T10471115  RH  059%=      5-min Rain = 0
KCH1 111127Z 00011G19KT M05/M12 A3009 RMK A01 T10471115  RH  059%=      5-min Rain = 0
KCH1 111128Z 36017G23KT M05/M12 A3009 RMK A01 T10471115  RH  059%=      5-min Rain = 0
KCH1 111129Z 01015KT M05/M12 A301 RMK A01 T10481116  RH  059%=      5-min Rain = 0
KCH1 111130Z 00015G20KT M05/M12 A3009 RMK A01 T10481116  RH  059%=      5-min Rain = 0
KCH1 111131Z 00015G21KT M05/M12 A3009 RMK A01 T10491116  RH  059%=      5-min Rain = 0
KCH1 111132Z 36014KT M05/M12 A3009 RMK A01 T10491116  RH  059%=      5-min Rain = 0
KCH1 111133Z 01012G17KT M05/M12 A301 RMK A01 T10491116  RH  059%=      5-min Rain = 0
KCH1 111134Z 01010KT M05/M12 A301 RMK A01 T10491116  RH  059%=      5-min Rain = 0
KCH1 111135Z 35011G17KT M05/M12 A301 RMK A01 T10491116  RH  059%=      5-min Rain = 0
KCH1 111136Z 00015KT M05/M12 A301 RMK A01 T10491116  RH  059%=      5-min Rain = 0
KCH1 111137Z 01011G17KT M05/M12 A301 RMK A01 T10491116  RH  059%=      5-min Rain = 0
KCH1 111138Z 00011KT M05/M12 A301 RMK A01 T10501116  RH  059%=      5-min Rain = 0
KCH1 111139Z 00013KT M05/M12 A301 RMK A01 T10491116  RH  059%=      5-min Rain = 0
KCH1 111140Z 01013KT M05/M12 A301 RMK A01 T10491116  RH  059%=      5-min Rain = 0
KCH1 111141Z 01013KT M05/M12 A301 RMK A01 T10491116  RH  059%=      5-min Rain = 0
KCH1 111142Z 01012KT M05/M12 A301 RMK A01 T10491116  RH  059%=      5-min Rain = 0
KCH1 111143Z 01011G17KT M05/M12 A301 RMK A01 T10491116  RH  059%=      5-min Rain = 0
KCH1 111144Z 01012G17KT M05/M12 A301 RMK A01 T10491116  RH  059%=      5-min Rain = 0
KCH1 111145Z 02015KT M05/M12 A301 RMK A01 T10501117  RH  059%=      5-min Rain = 0
KCH1 111146Z 01011KT M05/M12 A301 RMK A01 T10501117  RH  059%=      5-min Rain = 0
KCH1 111147Z 01012KT M05/M12 A301 RMK A01 T10501117  RH  059%=      5-min Rain = 0
KCH1 111148Z 01012G20KT M05/M12 A3011 RMK A01 T10501117  RH  059%=      5-min Rain = 0
KCH1 111149Z 00017G22KT M05/M12 A3011 RMK A01 T10501117  RH  059%=      5-min Rain = 0
KCH1 111150Z 00014G19KT M05/M12 A301 RMK A01 T10501117  RH  059%=      5-min Rain = 0
KCH1 111151Z 02014KT M05/M12 A301 RMK A01 T10501117  RH  059%=      5-min Rain = 0
KCH1 111152Z 02010KT M05/M12 A301 RMK A01 T10501117  RH  059%=      5-min Rain = 0
KCH1 111153Z 00010G16KT M05/M12 A301 RMK A01 T10501117  RH  059%=      5-min Rain = 0
KCH1 111154Z 01012KT M05/M12 A301 RMK A01 T10501118  RH  059%=      5-min Rain = 0
KCH1 111155Z 00012KT M05/M12 A301 RMK A01 T10501117  RH  059%=      5-min Rain = 0
KCH1 111156Z 01011KT M05/M12 A301 RMK A01 T10501118  RH  059%=      5-min Rain = 0
KCH1 111157Z 00009KT M05/M12 A301 RMK A01 T10501118  RH  059%=      5-min Rain = 0
KCH1 111158Z 01011KT M05/M12 A301 RMK A01 T10501118  RH  059%=      5-min Rain = 0
KCH1 111159Z 02012KT M05/M12 A3011 RMK A01 T10501118  RH  059%=      5-min Rain = 0
KCH1 111200Z 01010KT M05/M12 A3011 RMK A01 T10501118  RH  059%=      5-min Rain = 0
KCH1 111201Z 01014KT M05/M12 A3011 RMK A01 T10511118  RH  059%=      5-min Rain = 0
KCH1 111202Z 01012KT M05/M12 A301 RMK A01 T10501118  RH  059%=      5-min Rain = 0
KCH1 111203Z 01012KT M05/M12 A3011 RMK A01 T10501118  RH  059%=      5-min Rain = 0
KCH1 111204Z 02011KT M05/M12 A3011 RMK A01 T10511118  RH  059%=      5-min Rain = 0
KCH1 111205Z 02010KT M05/M12 A3011 RMK A01 T10511118  RH  059%=      5-min Rain = 0
KCH1 111206Z 01008KT M05/M12 A3011 RMK A01 T10501118  RH  059%=      5-min Rain = 0
KCH1 111207Z 01009KT M05/M12 A3011 RMK A01 T10501118  RH  059%=      5-min Rain = 0
KCH1 111208Z 01011KT M05/M12 A3011 RMK A01 T10501118  RH  059%=      5-min Rain = 0
KCH1 111209Z 01012KT M05/M12 A3011 RMK A01 T10501118  RH  059%=      5-min Rain = 0
KCH1 111210Z 02011KT M05/M12 A3012 RMK A01 T10501118  RH  059%=      5-min Rain = 0
KCH1 111211Z 01010KT M05/M12 A3012 RMK A01 T10501118  RH  059%=      5-min Rain = 0
KCH1 111212Z 01009KT M05/M12 A3012 RMK A01 T10501118  RH  059%=      5-min Rain = 0
KCH1 111213Z 01010KT M05/M12 A3012 RMK A01 T10501118  RH  059%=      5-min Rain = 0
KCH1 111214Z 01010KT M05/M12 A3012 RMK A01 T10501118  RH  059%=      5-min Rain = 0
KCH1 111215Z 01007KT M05/M12 A3012 RMK A01 T10501118  RH  059%=      5-min Rain = 0
KCH1 111216Z 01009KT M05/M12 A3012 RMK A01 T10501118  RH  059%=      5-min Rain = 0
KCH1 111217Z 36009KT M05/M12 A3012 RMK A01 T10501118  RH  059%=      5-min Rain = 0
KCH1 111218Z 35008KT M05/M12 A3012 RMK A01 T10501118  RH  059%=      5-min Rain = 0
KCH1 111219Z 35007KT M05/M12 A3012 RMK A01 T10501118  RH  059%=      5-min Rain = 0
KCH1 111220Z 36008KT M05/M12 A3012 RMK A01 T10491117  RH  059%=      5-min Rain = 0
KCH1 111221Z 00007KT M05/M12 A3012 RMK A01 T10491118  RH  059%=      5-min Rain = 0
KCH1 111222Z 36008KT M05/M12 A3012 RMK A01 T10501118  RH  059%=      5-min Rain = 0
KCH1 111223Z 01007KT M05/M12 A3012 RMK A01 T10491117  RH  059%=      5-min Rain = 0
KCH1 111224Z 00007KT M05/M12 A3012 RMK A01 T10491118  RH  059%=      5-min Rain = 0
KCH1 111225Z 35010KT M05/M12 A3012 RMK A01 T10491118  RH  059%=      5-min Rain = 0
KCH1 111226Z 35008KT M05/M12 A3012 RMK A01 T10501118  RH  059%=      5-min Rain = 0
KCH1 111227Z 36009KT M05/M12 A3012 RMK A01 T10491118  RH  059%=      5-min Rain = 0
KCH1 111228Z 01008KT M05/M12 A3012 RMK A01 T10491118  RH  059%=      5-min Rain = 0
KCH1 111229Z 02005KT M05/M12 A3012 RMK A01 T10501117  RH  059%=      5-min Rain = 0
KCH1 111230Z 02007KT M05/M12 A3012 RMK A01 T10491117  RH  059%=      5-min Rain = 0
KCH1 111231Z 01008KT M05/M12 A3012 RMK A01 T10481116  RH  059%=      5-min Rain = 0
KCH1 111232Z 01011KT M05/M12 A3013 RMK A01 T10491117  RH  059%=      5-min Rain = 0
KCH1 111233Z 01012KT M05/M12 A3013 RMK A01 T10491117  RH  059%=      5-min Rain = 0
KCH1 111234Z 00009G14KT M05/M12 A3013 RMK A01 T10491117  RH  059%=      5-min Rain = 0
KCH1 111235Z 01010KT M05/M12 A3013 RMK A01 T10491117  RH  059%=      5-min Rain = 0
KCH1 111236Z 01009KT M05/M12 A3013 RMK A01 T10491117  RH  059%=      5-min Rain = 0
KCH1 111237Z 36007KT M05/M12 A3013 RMK A01 T10491117  RH  059%=      5-min Rain = 0
KCH1 111238Z 00006KT M05/M12 A3013 RMK A01 T10491117  RH  059%=      5-min Rain = 0
KCH1 111239Z 01007KT M05/M12 A3013 RMK A01 T10491117  RH  059%=      5-min Rain = 0
KCH1 111240Z 01008KT M05/M12 A3013 RMK A01 T10481117  RH  059%=      5-min Rain = 0
KCH1 111241Z 36007KT M05/M12 A3014 RMK A01 T10491117  RH  059%=      5-min Rain = 0
KCH1 111242Z 36008KT M05/M12 A3014 RMK A01 T10491117  RH  059%=      5-min Rain = 0
KCH1 111243Z 36005KT M05/M12 A3014 RMK A01 T10491117  RH  059%=      5-min Rain = 0
KCH1 111244Z 00008KT M05/M12 A3014 RMK A01 T10481117  RH  059%=      5-min Rain = 0
KCH1 111245Z 00009KT M05/M12 A3014 RMK A01 T10481117  RH  059%=      5-min Rain = 0
KCH1 111246Z 35007G12KT M05/M12 A3014 RMK A01 T10481117  RH  059%=      5-min Rain = 0
KCH1 111247Z 01010KT M05/M12 A3014 RMK A01 T10481116  RH  059%=      5-min Rain = 0
KCH1 111248Z 01007KT M05/M12 A3014 RMK A01 T10481117  RH  059%=      5-min Rain = 0
KCH1 111249Z 36008KT M05/M12 A3014 RMK A01 T10481117  RH  059%=      5-min Rain = 0
KCH1 111250Z 35008KT M05/M12 A3014 RMK A01 T10481117  RH  059%=      5-min Rain = 0
KCH1 111251Z 36008KT M05/M12 A3014 RMK A01 T10481116  RH  059%=      5-min Rain = 0
KCH1 111252Z 36008KT M05/M12 A3014 RMK A01 T10481116  RH  059%=      5-min Rain = 0
KCH1 111253Z 36009KT M05/M12 A3014 RMK A01 T10481116  RH  059%=      5-min Rain = 0
KCH1 111254Z 35006KT M05/M12 A3014 RMK A01 T10481117  RH  059%=      5-min Rain = 0
KCH1 111255Z 36009KT M05/M12 A3014 RMK A01 T10481116  RH  059%=      5-min Rain = 0
KCH1 111256Z 00007KT M05/M12 A3014 RMK A01 T10481116  RH  059%=      5-min Rain = 0
KCH1 111257Z 35008KT M05/M12 A3014 RMK A01 T10481116  RH  059%=      5-min Rain = 0
KCH1 111258Z 35007KT M05/M12 A3014 RMK A01 T10481116  RH  059%=      5-min Rain = 0
KCH1 111259Z 35006KT M05/M12 A3014 RMK A01 T10481116  RH  059%=      5-min Rain = 0
KCH1 111300Z 36006KT M05/M12 A3014 RMK A01 T10481116  RH  059%=      5-min Rain = 0
KCH1 111301Z 36010KT M05/M12 A3014 RMK A01 T10481116  RH  059%=      5-min Rain = 0
KCH1 111302Z 00010KT M05/M12 A3014 RMK A01 T10481116  RH  059%=      5-min Rain = 0
KCH1 111303Z 02007KT M05/M12 A3014 RMK A01 T10481116  RH  059%=      5-min Rain = 0
KCH1 111304Z 36010KT M05/M12 A3015 RMK A01 T10481116  RH  059%=      5-min Rain = 0
KCH1 111305Z 36010KT M05/M12 A3015 RMK A01 T10481116  RH  059%=      5-min Rain = 0
KCH1 111306Z 00011KT M05/M12 A3015 RMK A01 T10481116  RH  059%=      5-min Rain = 0
KCH1 111307Z 00012KT M05/M12 A3015 RMK A01 T10481116  RH  059%=      5-min Rain = 0
KCH1 111308Z 01009KT M05/M12 A3015 RMK A01 T10481115  RH  059%=      5-min Rain = 0
KCH1 111309Z 00007G13KT M05/M12 A3015 RMK A01 T10481115  RH  059%=      5-min Rain = 0
KCH1 111310Z 35011KT M05/M11 A3015 RMK A01 T10471114  RH  060%=      5-min Rain = 0
KCH1 111311Z 36009KT M05/M11 A3015 RMK A01 T10481114  RH  060%=      5-min Rain = 0
KCH1 111312Z 35009KT M05/M12 A3015 RMK A01 T10481115  RH  059%=      5-min Rain = 0
KCH1 111313Z 00009KT M05/M11 A3015 RMK A01 T10481114  RH  059%=      5-min Rain = 0
KCH1 111314Z 36008KT M05/M11 A3015 RMK A01 T10471114  RH  060%=      5-min Rain = 0
KCH1 111315Z 35012G17KT M05/M11 A3015 RMK A01 T10481114  RH  060%=      5-min Rain = 0
KCH1 111316Z 36011G16KT M05/M11 A3015 RMK A01 T10481113  RH  060%=      5-min Rain = 0
KCH1 111317Z 00006KT M05/M11 A3015 RMK A01 T10481112  RH  061%=      5-min Rain = 0
KCH1 111318Z 36010KT M05/M11 A3015 RMK A01 T10481112  RH  061%=      5-min Rain = 0
KCH1 111319Z 00010KT M05/M11 A3015 RMK A01 T10481112  RH  061%=      5-min Rain = 0
KCH1 111320Z 01008KT M05/M11 A3015 RMK A01 T10481112  RH  061%=      5-min Rain = 0
KCH1 111321Z 01009KT M05/M11 A3015 RMK A01 T10481111  RH  061%=      5-min Rain = 0
KCH1 111322Z 01007KT M05/M11 A3015 RMK A01 T10481111  RH  062%=      5-min Rain = 0
KCH1 111323Z 36007KT M05/M11 A3015 RMK A01 T10481110  RH  062%=      5-min Rain = 0
KCH1 111324Z 35007G12KT M05/M11 A3016 RMK A01 T10481110  RH  062%=      5-min Rain = 0
KCH1 111325Z 36011KT M05/M11 A3016 RMK A01 T10481110  RH  062%=      5-min Rain = 0
KCH1 111326Z 01008KT M05/M11 A3016 RMK A01 T10481110  RH  062%=      5-min Rain = 0
KCH1 111327Z 01009KT M05/M11 A3016 RMK A01 T10481110  RH  062%=      5-min Rain = 0
KCH1 111328Z 36006KT M05/M11 A3016 RMK A01 T10481110  RH  062%=      5-min Rain = 0
KCH1 111329Z 35010KT M05/M11 A3016 RMK A01 T10481110  RH  062%=      5-min Rain = 0
KCH1 111330Z 36009G15KT M05/M11 A3016 RMK A01 T10481110  RH  062%=      5-min Rain = 0
KCH1 111331Z 35012KT M05/M11 A3016 RMK A01 T10481109  RH  062%=      5-min Rain = 0
KCH1 111332Z 36012KT M05/M11 A3016 RMK A01 T10481109  RH  062%=      5-min Rain = 0
KCH1 111333Z 36009KT M05/M11 A3017 RMK A01 T10481109  RH  062%=      5-min Rain = 0
KCH1 111334Z 36009KT M05/M11 A3017 RMK A01 T10481109  RH  063%=      5-min Rain = 0
KCH1 111335Z 00008KT M05/M11 A3017 RMK A01 T10491109  RH  063%=      5-min Rain = 0
KCH1 111336Z 36008KT M05/M11 A3017 RMK A01 T10481109  RH  062%=      5-min Rain = 0
KCH1 111337Z 00009G15KT M05/M11 A3017 RMK A01 T10481109  RH  062%=      5-min Rain = 0
KCH1 111338Z 01013KT M05/M11 A3016 RMK A01 T10481110  RH  062%=      5-min Rain = 0
KCH1 111339Z 01012KT M05/M11 A3016 RMK A01 T10481111  RH  062%=      5-min Rain = 0
KCH1 111340Z 01010KT M05/M11 A3017 RMK A01 T10481111  RH  061%=      5-min Rain = 0
KCH1 111341Z 36010KT M05/M11 A3017 RMK A01 T10471110  RH  061%=      5-min Rain = 0
KCH1 111342Z 35009KT M05/M11 A3017 RMK A01 T10471111  RH  061%=      5-min Rain = 0
KCH1 111343Z 35009KT M05/M11 A3017 RMK A01 T10471111  RH  061%=      5-min Rain = 0
KCH1 111344Z 36007KT M05/M11 A3017 RMK A01 T10471111  RH  061%=      5-min Rain = 0
KCH1 111345Z 00008KT M05/M11 A3017 RMK A01 T10461111  RH  061%=      5-min Rain = 0
KCH1 111346Z 35008G13KT M05/M11 A3017 RMK A01 T10471111  RH  061%=      5-min Rain = 0
KCH1 111347Z 00007KT M05/M11 A3017 RMK A01 T10471112  RH  060%=      5-min Rain = 0
KCH1 111348Z 35007KT M05/M11 A3017 RMK A01 T10461112  RH  060%=      5-min Rain = 0
KCH1 111349Z 00007KT M05/M11 A3017 RMK A01 T10461111  RH  060%=      5-min Rain = 0
KCH1 111350Z 35012G17KT M05/M11 A3017 RMK A01 T10461112  RH  060%=      5-min Rain = 0
KCH1 111351Z 01011KT M05/M11 A3017 RMK A01 T10461113  RH  060%=      5-min Rain = 0
KCH1 111352Z 01008KT M05/M11 A3018 RMK A01 T10461113  RH  059%=      5-min Rain = 0
KCH1 111353Z 01010KT M05/M11 A3018 RMK A01 T10461113  RH  059%=      5-min Rain = 0
KCH1 111354Z 00009KT M05/M11 A3018 RMK A01 T10461113  RH  059%=      5-min Rain = 0
KCH1 111355Z 36009KT M05/M11 A3018 RMK A01 T10451113  RH  059%=      5-min Rain = 0
KCH1 111356Z 35008G14KT M05/M11 A3018 RMK A01 T10451113  RH  059%=      5-min Rain = 0
KCH1 111357Z 34011KT M05/M11 A3018 RMK A01 T10451113  RH  059%=      5-min Rain = 0
KCH1 111358Z 35011KT M05/M11 A3018 RMK A01 T10451114  RH  059%=      5-min Rain = 0
KCH1 111359Z 36009KT M05/M11 A3018 RMK A01 T10451114  RH  059%=      5-min Rain = 0
KCH1 111400Z 34009KT M05/M11 A3018 RMK A01 T10451114  RH  059%=      5-min Rain = 0
KCH1 111401Z 00012KT M05/M11 A3018 RMK A01 T10451114  RH  059%=      5-min Rain = 0
KCH1 111402Z 35008KT M05/M11 A3018 RMK A01 T10451114  RH  059%=      5-min Rain = 0
KCH1 111403Z 35008KT M05/M11 A3018 RMK A01 T10451114  RH  059%=      5-min Rain = 0
KCH1 111404Z 00006KT M05/M11 A3018 RMK A01 T10451113  RH  059%=      5-min Rain = 0
KCH1 111405Z 00007KT M04/M11 A3018 RMK A01 T10441113  RH  059%=      5-min Rain = 0
KCH1 111406Z 36008KT M04/M11 A3018 RMK A01 T10441113  RH  058%=      5-min Rain = 0
KCH1 111407Z 00008KT M04/M11 A3018 RMK A01 T10441114  RH  058%=      5-min Rain = 0
KCH1 111408Z 36008KT M04/M11 A3018 RMK A01 T10441114  RH  058%=      5-min Rain = 0
KCH1 111409Z 01009KT M04/M11 A3018 RMK A01 T10441114  RH  058%=      5-min Rain = 0
KCH1 111410Z 01010KT M04/M11 A3018 RMK A01 T10441114  RH  058%=      5-min Rain = 0
KCH1 111411Z 00008KT M04/M11 A3018 RMK A01 T10441114  RH  058%=      5-min Rain = 0
KCH1 111412Z 01007KT M04/M11 A3019 RMK A01 T10441114  RH  058%=      5-min Rain = 0
KCH1 111413Z 01009KT M04/M11 A3018 RMK A01 T10441113  RH  058%=      5-min Rain = 0
KCH1 111414Z 00009KT M04/M11 A3018 RMK A01 T10431114  RH  058%=      5-min Rain = 0
KCH1 111415Z 01006KT M04/M11 A3018 RMK A01 T10441114  RH  058%=      5-min Rain = 0
KCH1 111416Z 35006KT M04/M11 A3018 RMK A01 T10431114  RH  058%=      5-min Rain = 0
KCH1 111417Z 36013KT M04/M11 A3018 RMK A01 T10431113  RH  058%=      5-min Rain = 0
KCH1 111418Z 35008KT M04/M11 A3018 RMK A01 T10431114  RH  058%=      5-min Rain = 0
KCH1 111419Z 00009KT M04/M11 A3018 RMK A01 T10431114  RH  058%=      5-min Rain = 0
KCH1 111420Z 00011KT M04/M11 A3018 RMK A01 T10431114  RH  058%=      5-min Rain = 0
KCH1 111421Z 00010KT M04/M11 A3018 RMK A01 T10431114  RH  058%=      5-min Rain = 0
KCH1 111422Z 35009KT M04/M12 A3018 RMK A01 T10431115  RH  058%=      5-min Rain = 0
KCH1 111423Z 35007KT M04/M12 A3018 RMK A01 T10441115  RH  058%=      5-min Rain = 0
KCH1 111424Z 01007KT M04/M11 A3018 RMK A01 T10431114  RH  058%=      5-min Rain = 0
KCH1 111425Z 01009KT M04/M11 A3018 RMK A01 T10431114  RH  058%=      5-min Rain = 0
KCH1 111426Z 36007KT M04/M11 A3019 RMK A01 T10431114  RH  058%=      5-min Rain = 0
KCH1 111427Z 00008KT M04/M11 A3019 RMK A01 T10421114  RH  057%=      5-min Rain = 0
KCH1 111428Z 01012KT M04/M11 A3019 RMK A01 T10421114  RH  057%=      5-min Rain = 0
KCH1 111429Z 01008KT M04/M11 A3019 RMK A01 T10421114  RH  057%=      5-min Rain = 0
KCH1 111430Z 35010KT M04/M11 A3019 RMK A01 T10421114  RH  057%=      5-min Rain = 0
KCH1 111431Z 00010KT M04/M12 A3019 RMK A01 T10421115  RH  057%=      5-min Rain = 0
KCH1 111432Z 36009KT M04/M11 A3019 RMK A01 T10421114  RH  057%=      5-min Rain = 0
KCH1 111433Z 34005KT M04/M11 A3019 RMK A01 T10411114  RH  057%=      5-min Rain = 0
KCH1 111434Z 36007KT M04/M11 A3019 RMK A01 T10411113  RH  057%=      5-min Rain = 0
KCH1 111435Z 00009KT M04/M11 A3019 RMK A01 T10411114  RH  057%=      5-min Rain = 0
KCH1 111436Z 01009KT M04/M11 A3019 RMK A01 T10411114  RH  057%=      5-min Rain = 0
KCH1 111437Z 35008KT M04/M11 A3019 RMK A01 T10401114  RH  057%=      5-min Rain = 0
KCH1 111438Z 36012KT M04/M11 A3019 RMK A01 T10401113  RH  057%=      5-min Rain = 0
KCH1 111439Z 00007KT M04/M11 A3019 RMK A01 T10401114  RH  056%=      5-min Rain = 0
KCH1 111440Z 35010G17KT M04/M11 A3019 RMK A01 T10401114  RH  056%=      5-min Rain = 0
KCH1 111441Z 36012KT M04/M11 A3019 RMK A01 T10391114  RH  056%=      5-min Rain = 0
KCH1 111442Z 01009KT M04/M12 A3019 RMK A01 T10401115  RH  056%=      5-min Rain = 0
KCH1 111443Z 35008KT M04/M11 A302 RMK A01 T10401114  RH  056%=      5-min Rain = 0
KCH1 111444Z 01010KT M04/M11 A302 RMK A01 T10391114  RH  056%=      5-min Rain = 0
KCH1 111445Z 00012KT M04/M11 A302 RMK A01 T10391114  RH  056%=      5-min Rain = 0
KCH1 111446Z 36010KT M04/M11 A302 RMK A01 T10391114  RH  056%=      5-min Rain = 0
KCH1 111447Z 00011KT M04/M12 A302 RMK A01 T10391115  RH  056%=      5-min Rain = 0
KCH1 111448Z 35010KT M04/M11 A302 RMK A01 T10391114  RH  056%=      5-min Rain = 0
KCH1 111449Z 35008KT M04/M11 A302 RMK A01 T10391114  RH  056%=      5-min Rain = 0
KCH1 111450Z 35011KT M04/M11 A302 RMK A01 T10381114  RH  056%=      5-min Rain = 0
KCH1 111451Z 35010KT M04/M11 A3021 RMK A01 T10391114  RH  056%=      5-min Rain = 0
KCH1 111452Z 36008KT M04/M11 A3021 RMK A01 T10391114  RH  056%=      5-min Rain = 0
KCH1 111453Z 01006KT M04/M11 A3021 RMK A01 T10391114  RH  056%=      5-min Rain = 0
KCH1 111454Z 34010KT M04/M11 A3021 RMK A01 T10381113  RH  056%=      5-min Rain = 0
KCH1 111455Z 34011KT M04/M11 A3021 RMK A01 T10371113  RH  056%=      5-min Rain = 0
KCH1 111456Z 35009KT M04/M11 A3021 RMK A01 T10371113  RH  055%=      5-min Rain = 0
KCH1 111457Z 35013KT M04/M11 A3021 RMK A01 T10371113  RH  055%=      5-min Rain = 0
KCH1 111458Z 35011KT M04/M11 A3021 RMK A01 T10371114  RH  055%=      5-min Rain = 0
KCH1 111459Z 36010KT M04/M11 A3021 RMK A01 T10371114  RH  055%=      5-min Rain = 0
KCH1 111500Z 34008KT M04/M11 A3022 RMK A01 T10371114  RH  055%=      5-min Rain = 0
KCH1 111501Z 36010KT M04/M11 A3021 RMK A01 T10361113  RH  055%=      5-min Rain = 0
KCH1 111502Z 36009KT M04/M11 A3021 RMK A01 T10361114  RH  055%=      5-min Rain = 0
KCH1 111503Z 35012KT M04/M11 A3021 RMK A01 T10361114  RH  055%=      5-min Rain = 0
KCH1 111504Z 00010KT M04/M11 A3021 RMK A01 T10361114  RH  055%=      5-min Rain = 0
KCH1 111505Z 36011G16KT M04/M11 A3021 RMK A01 T10361114  RH  055%=      5-min Rain = 0
KCH1 111506Z 35011KT M04/M11 A3021 RMK A01 T10361114  RH  055%=      5-min Rain = 0
KCH1 111507Z 35010KT M04/M11 A3022 RMK A01 T10361114  RH  055%=      5-min Rain = 0
KCH1 111508Z 36008KT M04/M11 A3022 RMK A01 T10361114  RH  055%=      5-min Rain = 0
KCH1 111509Z 35008KT M04/M11 A3022 RMK A01 T10361113  RH  055%=      5-min Rain = 0
KCH1 111510Z 34007KT M04/M11 A3022 RMK A01 T10351113  RH  055%=      5-min Rain = 0
KCH1 111511Z 36006KT M04/M11 A3022 RMK A01 T10351113  RH  055%=      5-min Rain = 0
KCH1 111512Z 00007KT M03/M11 A3022 RMK A01 T10331112  RH  055%=      5-min Rain = 0
KCH1 111513Z 01011KT M03/M11 A3022 RMK A01 T10321111  RH  054%=      5-min Rain = 0
KCH1 111514Z 01008KT M03/M11 A3022 RMK A01 T10321112  RH  054%=      5-min Rain = 0
KCH1 111515Z 01007G12KT M03/M11 A3022 RMK A01 T10321112  RH  054%=      5-min Rain = 0
KCH1 111516Z 01011KT M03/M11 A3022 RMK A01 T10321112  RH  054%=      5-min Rain = 0
KCH1 111517Z 01011KT M03/M11 A3022 RMK A01 T10321113  RH  054%=      5-min Rain = 0
KCH1 111518Z 01009KT M03/M11 A3022 RMK A01 T10331113  RH  054%=      5-min Rain = 0
KCH1 111519Z 36008G13KT M03/M11 A3022 RMK A01 T10331113  RH  054%=      5-min Rain = 0
KCH1 111520Z 35010KT M03/M11 A3022 RMK A01 T10331112  RH  054%=      5-min Rain = 0
KCH1 111521Z 35009KT M03/M11 A3022 RMK A01 T10331113  RH  054%=      5-min Rain = 0
KCH1 111522Z 35008KT M03/M11 A3022 RMK A01 T10321112  RH  054%=      5-min Rain = 0
KCH1 111523Z 36012G17KT M03/M11 A3022 RMK A01 T10321113  RH  054%=      5-min Rain = 0
KCH1 111524Z 01014KT M03/M11 A3022 RMK A01 T10321113  RH  054%=      5-min Rain = 0
KCH1 111525Z 36013KT M03/M11 A3022 RMK A01 T10331114  RH  054%=      5-min Rain = 0
KCH1 111526Z 00013KT M03/M11 A3022 RMK A01 T10341114  RH  054%=      5-min Rain = 0
KCH1 111527Z 36012KT M03/M11 A3022 RMK A01 T10341113  RH  054%=      5-min Rain = 0
KCH1 111528Z 00012KT M03/M11 A3022 RMK A01 T10331113  RH  054%=      5-min Rain = 0
KCH1 111529Z 36012KT M03/M11 A3022 RMK A01 T10331113  RH  054%=      5-min Rain = 0
KCH1 111530Z 00011KT M03/M11 A3022 RMK A01 T10341113  RH  054%=      5-min Rain = 0
KCH1 111531Z 35009KT M03/M11 A3022 RMK A01 T10331113  RH  054%=      5-min Rain = 0
KCH1 111532Z 36008KT M03/M11 A3022 RMK A01 T10331113  RH  054%=      5-min Rain = 0
KCH1 111533Z 36008KT M03/M11 A3022 RMK A01 T10311110  RH  054%=      5-min Rain = 0
KCH1 111534Z 35008KT M03/M11 A3022 RMK A01 T10301111  RH  054%=      5-min Rain = 0
KCH1 111535Z 34010KT M03/M11 A3022 RMK A01 T10301111  RH  053%=      5-min Rain = 0
KCH1 111536Z 35009KT M03/M11 A3022 RMK A01 T10301112  RH  053%=      5-min Rain = 0
KCH1 111537Z 35008KT M03/M11 A3023 RMK A01 T10301112  RH  053%=      5-min Rain = 0
KCH1 111538Z 33008KT M03/M11 A3023 RMK A01 T10291111  RH  053%=      5-min Rain = 0
KCH1 111539Z 34012G17KT M03/M11 A3023 RMK A01 T10291112  RH  053%=      5-min Rain = 0
KCH1 111540Z 36014KT M03/M11 A3023 RMK A01 T10301113  RH  053%=      5-min Rain = 0
KCH1 111541Z 00014G19KT M03/M11 A3023 RMK A01 T10301113  RH  053%=      5-min Rain = 0
KCH1 111542Z 00011KT M03/M11 A3023 RMK A01 T10311113  RH  053%=      5-min Rain = 0
KCH1 111543Z 00012G17KT M03/M11 A3023 RMK A01 T10311113  RH  053%=      5-min Rain = 0
KCH1 111544Z 35011KT M03/M11 A3023 RMK A01 T10311112  RH  053%=      5-min Rain = 0
KCH1 111545Z 36012G17KT M03/M11 A3023 RMK A01 T10301112  RH  053%=      5-min Rain = 0
KCH1 111546Z 00010KT M03/M11 A3023 RMK A01 T10311113  RH  053%=      5-min Rain = 0
KCH1 111547Z 36009KT M03/M11 A3023 RMK A01 T10311112  RH  053%=      5-min Rain = 0
KCH1 111548Z 35011KT M03/M11 A3023 RMK A01 T10291111  RH  053%=      5-min Rain = 0
KCH1 111549Z 36010KT M03/M11 A3023 RMK A01 T10281112  RH  053%=      5-min Rain = 0
KCH1 111550Z 00008KT M03/M11 A3023 RMK A01 T10281112  RH  053%=      5-min Rain = 0
KCH1 111551Z 36010KT M03/M11 A3023 RMK A01 T10281111  RH  053%=      5-min Rain = 0
KCH1 111552Z 35011KT M03/M11 A3023 RMK A01 T10281112  RH  052%=      5-min Rain = 0
KCH1 111553Z 01007G12KT M03/M11 A3023 RMK A01 T10281112  RH  052%=      5-min Rain = 0
KCH1 111554Z 36011KT M03/M11 A3023 RMK A01 T10271111  RH  053%=      5-min Rain = 0
KCH1 111555Z 34012G18KT M03/M11 A3023 RMK A01 T10271111  RH  052%=      5-min Rain = 0
KCH1 111556Z 35011KT M03/M11 A3023 RMK A01 T10261111  RH  052%=      5-min Rain = 0
KCH1 111557Z 34010KT M03/M11 A3023 RMK A01 T10261111  RH  052%=      5-min Rain = 0
KCH1 111558Z 34010KT M03/M11 A3023 RMK A01 T10271111  RH  052%=      5-min Rain = 0
KCH1 111559Z 35013KT M03/M11 A3023 RMK A01 T10271111  RH  052%=      5-min Rain = 0
KCH1 111600Z 34011KT M03/M11 A3023 RMK A01 T10271112  RH  052%=      5-min Rain = 0
KCH1 111601Z 35009KT M03/M11 A3023 RMK A01 T10271112  RH  052%=      5-min Rain = 0
KCH1 111602Z 01008KT M03/M11 A3023 RMK A01 T10251110  RH  052%=      5-min Rain = 0
KCH1 111603Z 36010KT M02/M11 A3023 RMK A01 T10231109  RH  052%=      5-min Rain = 0
KCH1 111604Z 35011G16KT M02/M11 A3023 RMK A01 T10221109  RH  051%=      5-min Rain = 0
KCH1 111605Z 00012KT M02/M11 A3023 RMK A01 T10221111  RH  051%=      5-min Rain = 0
KCH1 111606Z 36014KT M02/M11 A3023 RMK A01 T10241112  RH  051%=      5-min Rain = 0
KCH1 111607Z 00011KT M03/M11 A3023 RMK A01 T10251113  RH  051%=      5-min Rain = 0
KCH1 111608Z 00007KT M03/M11 A3023 RMK A01 T10251111  RH  052%=      5-min Rain = 0
KCH1 111609Z 01006KT M02/M11 A3023 RMK A01 T10211106  RH  052%=      5-min Rain = 0
KCH1 111610Z 36009KT M02/M11 A3023 RMK A01 T10171105  RH  051%=      5-min Rain = 0
KCH1 111611Z 01010KT M02/M11 A3023 RMK A01 T10181109  RH  050%=      5-min Rain = 0
KCH1 111612Z 01011G17KT M02/M11 A3024 RMK A01 T10191110  RH  050%=      5-min Rain = 0
KCH1 111613Z 00010G15KT M02/M11 A3024 RMK A01 T10201111  RH  050%=      5-min Rain = 0
KCH1 111614Z 35011KT M02/M11 A3024 RMK A01 T10201111  RH  050%=      5-min Rain = 0
KCH1 111615Z 35011G16KT M02/M11 A3024 RMK A01 T10201111  RH  050%=      5-min Rain = 0
KCH1 111616Z 00013G18KT M02/M11 A3024 RMK A01 T10201110  RH  050%=      5-min Rain = 0
KCH1 111617Z 35010KT M02/M11 A3024 RMK A01 T10201111  RH  050%=      5-min Rain = 0
KCH1 111618Z 35011KT M02/M11 A3024 RMK A01 T10201111  RH  050%=      5-min Rain = 0
KCH1 111619Z 35009KT M02/M11 A3024 RMK A01 T10201111  RH  050%=      5-min Rain = 0
KCH1 111620Z 35011KT M02/M11 A3024 RMK A01 T10201111  RH  050%=      5-min Rain = 0
KCH1 111621Z 35012KT M02/M11 A3024 RMK A01 T10211112  RH  050%=      5-min Rain = 0
KCH1 111622Z 01011KT M02/M11 A3024 RMK A01 T10221112  RH  050%=      5-min Rain = 0
KCH1 111623Z 01011KT M02/M11 A3024 RMK A01 T10231112  RH  050%=      5-min Rain = 0
KCH1 111624Z 36010KT M02/M11 A3024 RMK A01 T10231112  RH  050%=      5-min Rain = 0
KCH1 111625Z 00011KT M02/M11 A3024 RMK A01 T10231112  RH  050%=      5-min Rain = 0
KCH1 111626Z 02010KT M02/M11 A3024 RMK A01 T10231112  RH  050%=      5-min Rain = 0
KCH1 111627Z 01012KT M02/M11 A3024 RMK A01 T10231112  RH  050%=      5-min Rain = 0
KCH1 111628Z 34010KT M02/M11 A3025 RMK A01 T10221112  RH  050%=      5-min Rain = 0
KCH1 111629Z 34011G16KT M02/M11 A3025 RMK A01 T10221111  RH  050%=      5-min Rain = 0
KCH1 111630Z 35013KT M02/M11 A3024 RMK A01 T10211112  RH  050%=      5-min Rain = 0
KCH1 111631Z 35014G20KT M02/M11 A3024 RMK A01 T10221112  RH  050%=      5-min Rain = 0
KCH1 111632Z 34011KT M02/M11 A3024 RMK A01 T10231113  RH  050%=      5-min Rain = 0
KCH1 111633Z 35013KT M02/M11 A3024 RMK A01 T10231113  RH  050%=      5-min Rain = 0
KCH1 111634Z 35010KT M02/M11 A3024 RMK A01 T10231113  RH  050%=      5-min Rain = 0
KCH1 111635Z 35009G14KT M02/M11 A3025 RMK A01 T10221111  RH  050%=      5-min Rain = 0
KCH1 111636Z 00011G16KT M02/M11 A3025 RMK A01 T10201111  RH  050%=      5-min Rain = 0
KCH1 111637Z 35007G12KT M02/M11 A3025 RMK A01 T10201112  RH  050%=      5-min Rain = 0
KCH1 111638Z 36010KT M02/M11 A3025 RMK A01 T10191110  RH  050%=      5-min Rain = 0
KCH1 111639Z 35012KT M02/M11 A3025 RMK A01 T10191112  RH  049%=      5-min Rain = 0
KCH1 111640Z 01013KT M02/M11 A3025 RMK A01 T10201113  RH  049%=      5-min Rain = 0
KCH1 111641Z 35010G15KT M02/M11 A3025 RMK A01 T10201112  RH  049%=      5-min Rain = 0
KCH1 111642Z 34009G14KT M02/M11 A3025 RMK A01 T10171110  RH  049%=      5-min Rain = 0
KCH1 111643Z 34010G16KT M02/M11 A3025 RMK A01 T10151110  RH  049%=      5-min Rain = 0
KCH1 111644Z 35014KT M01/M11 A3025 RMK A01 T10141110  RH  048%=      5-min Rain = 0
KCH1 111645Z 00011KT M01/M11 A3025 RMK A01 T10141111  RH  048%=      5-min Rain = 0
KCH1 111646Z 00009KT M02/M11 A3025 RMK A01 T10151112  RH  048%=      5-min Rain = 0
KCH1 111647Z 00007KT M02/M11 A3025 RMK A01 T10151111  RH  048%=      5-min Rain = 0
KCH1 111648Z 36009KT M01/M11 A3025 RMK A01 T10131109  RH  048%=      5-min Rain = 0
KCH1 111649Z 34006G11KT M01/M11 A3025 RMK A01 T10111109  RH  047%=      5-min Rain = 0
KCH1 111650Z 34007G13KT M01/M11 A3025 RMK A01 T10091108  RH  047%=      5-min Rain = 0
KCH1 111651Z 33010KT M01/M11 A3025 RMK A01 T10081108  RH  047%=      5-min Rain = 0
KCH1 111652Z 34011KT M01/M11 A3025 RMK A01 T10081110  RH  046%=      5-min Rain = 0
KCH1 111653Z 36008KT M01/M11 A3025 RMK A01 T10101112  RH  046%=      5-min Rain = 0
KCH1 111654Z 01007KT M01/M11 A3025 RMK A01 T10071108  RH  046%=      5-min Rain = 0
KCH1 111655Z 01006KT M00/M11 A3025 RMK A01 T10041106  RH  046%=      5-min Rain = 0
KCH1 111656Z 01009KT M00/M11 A3025 RMK A01 T10021107  RH  045%=      5-min Rain = 0
KCH1 111657Z 01011KT M00/M11 A3025 RMK A01 T10041111  RH  044%=      5-min Rain = 0
KCH1 111658Z 36010KT M01/M11 A3025 RMK A01 T10081113  RH  045%=      5-min Rain = 0
KCH1 111659Z 35014KT M01/M11 A3026 RMK A01 T10091112  RH  045%=      5-min Rain = 0
KCH1 111700Z 35012KT M01/M11 A3026 RMK A01 T10111113  RH  046%=      5-min Rain = 0
KCH1 111701Z 35010KT M01/M11 A3026 RMK A01 T10111112  RH  046%=      5-min Rain = 0
KCH1 111702Z 35014KT M01/M11 A3025 RMK A01 T10101110  RH  046%=      5-min Rain = 0
KCH1 111703Z 35009KT M01/M11 A3025 RMK A01 T10101111  RH  046%=      5-min Rain = 0
KCH1 111704Z 35013KT M01/M11 A3026 RMK A01 T10091110  RH  046%=      5-min Rain = 0
KCH1 111705Z 34011KT M01/M11 A3026 RMK A01 T10101111  RH  046%=      5-min Rain = 0
KCH1 111706Z 34008KT M01/M11 A3026 RMK A01 T10091110  RH  046%=      5-min Rain = 0
KCH1 111707Z 34010KT M01/M11 A3026 RMK A01 T10071109  RH  046%=      5-min Rain = 0
KCH1 111708Z 34012KT M01/M11 A3026 RMK A01 T10061109  RH  046%=      5-min Rain = 0
KCH1 111709Z 35010KT M01/M11 A3026 RMK A01 T10061110  RH  045%=      5-min Rain = 0
KCH1 111710Z 36012KT M01/M11 A3026 RMK A01 T10061110  RH  045%=      5-min Rain = 0
KCH1 111711Z 35011KT M01/M11 A3026 RMK A01 T10071111  RH  045%=      5-min Rain = 0
KCH1 111712Z 34011KT M01/M11 A3026 RMK A01 T10071111  RH  045%=      5-min Rain = 0
KCH1 111713Z 35012KT M01/M11 A3026 RMK A01 T10061110  RH  045%=      5-min Rain = 0
KCH1 111714Z 00009KT M01/M11 A3026 RMK A01 T10071111  RH  045%=      5-min Rain = 0
KCH1 111715Z 00007KT M01/M11 A3026 RMK A01 T10081110  RH  046%=      5-min Rain = 0
KCH1 111716Z 01008KT M00/M11 A3026 RMK A01 T10031106  RH  046%=      5-min Rain = 0
KCH1 111717Z 01009KT 00/11 A3025 RMK A01 T00000-106  RH  045%=      5-min Rain = 0
KCH1 111718Z 35009G15KT 00/M11 A3025 RMK A01 T00011107  RH  044%=      5-min Rain = 0
KCH1 111719Z 01014KT 00/M11 A3025 RMK A01 T00041106  RH  044%=      5-min Rain = 0
KCH1 111720Z 01012KT 00/M11 A3025 RMK A01 T00041107  RH  043%=      5-min Rain = 0
KCH1 111721Z 00009KT 01/M11 A3025 RMK A01 T00051107  RH  043%=      5-min Rain = 0
KCH1 111722Z 34011G16KT 01/M11 A3025 RMK A01 T00061106  RH  043%=      5-min Rain = 0
KCH1 111723Z 34010G15KT 01/M11 A3025 RMK A01 T00071107  RH  042%=      5-min Rain = 0
KCH1 111724Z 33012KT 01/M11 A3025 RMK A01 T00051109  RH  042%=      5-min Rain = 0
KCH1 111725Z 02007KT 01/M11 A3025 RMK A01 T00051108  RH  043%=      5-min Rain = 0
KCH1 111726Z 00006G11KT 01/M10 A3025 RMK A01 T00091103  RH  043%=      5-min Rain = 0
KCH1 111727Z 34011KT 01/M10 A3025 RMK A01 T00121104  RH  042%=      5-min Rain = 0
KCH1 111728Z 34013G18KT 01/M11 A3025 RMK A01 T00091108  RH  041%=      5-min Rain = 0
KCH1 111729Z 01011G18KT 01/M11 A3025 RMK A01 T00071109  RH  041%=      5-min Rain = 0
KCH1 111730Z 01009KT 01/M11 A3025 RMK A01 T00071108  RH  042%=      5-min Rain = 0
KCH1 111731Z 34009G14KT 01/M10 A3025 RMK A01 T00111104  RH  042%=      5-min Rain = 0
KCH1 111732Z 34010KT 01/M10 A3025 RMK A01 T00141104  RH  041%=      5-min Rain = 0
KCH1 111733Z 34012KT 01/M11 A3025 RMK A01 T00131107  RH  040%=      5-min Rain = 0
KCH1 111734Z 34011KT 01/M11 A3025 RMK A01 T00101110  RH  040%=      5-min Rain = 0
KCH1 111735Z 35013KT 01/M11 A3025 RMK A01 T00081109  RH  041%=      5-min Rain = 0
KCH1 111736Z 36010KT 01/M11 A3025 RMK A01 T00081108  RH  041%=      5-min Rain = 0
KCH1 111737Z 00009KT 01/M11 A3025 RMK A01 T00091108  RH  041%=      5-min Rain = 0
KCH1 111738Z 35010KT 01/M11 A3025 RMK A01 T00091108  RH  041%=      5-min Rain = 0
KCH1 111739Z 01008KT 01/M11 A3025 RMK A01 T00081110  RH  041%=      5-min Rain = 0
KCH1 111740Z 00006KT 01/M11 A3025 RMK A01 T00071110  RH  041%=      5-min Rain = 0
KCH1 111741Z 03007KT 01/M11 A3024 RMK A01 T00061109  RH  042%=      5-min Rain = 0
KCH1 111742Z 36010KT 01/M10 A3024 RMK A01 T00101104  RH  042%=      5-min Rain = 0
KCH1 111743Z 00010KT 01/M10 A3024 RMK A01 T00141104  RH  041%=      5-min Rain = 0
KCH1 111744Z 35010KT 01/M11 A3024 RMK A01 T00131108  RH  040%=      5-min Rain = 0
KCH1 111745Z 33007KT 01/M11 A3024 RMK A01 T00101110  RH  040%=      5-min Rain = 0
KCH1 111746Z 34007KT 01/M11 A3024 RMK A01 T00131106  RH  041%=      5-min Rain = 0
KCH1 111747Z 00008G13KT 02/M10 A3024 RMK A01 T00201100  RH  041%=      5-min Rain = 0
KCH1 111748Z 35011KT 03/M10 A3024 RMK A01 T00251101  RH  039%=      5-min Rain = 0
KCH1 111749Z 34011KT 02/M11 A3024 RMK A01 T00231106  RH  038%=      5-min Rain = 0
KCH1 111750Z 34011KT 02/M11 A3024 RMK A01 T00201109  RH  038%=      5-min Rain = 0
KCH1 111751Z 35013KT 02/M11 A3024 RMK A01 T00171110  RH  038%=      5-min Rain = 0
KCH1 111752Z 33012KT 01/M11 A3024 RMK A01 T00131112  RH  039%=      5-min Rain = 0
KCH1 111753Z 33010G15KT 01/M11 A3024 RMK A01 T00111110  RH  040%=      5-min Rain = 0
KCH1 111754Z 36010KT 01/M11 A3024 RMK A01 T00121109  RH  040%=      5-min Rain = 0
KCH1 111755Z 35010KT 01/M11 A3024 RMK A01 T00121109  RH  040%=      5-min Rain = 0
KCH1 111756Z 35013KT 01/M11 A3024 RMK A01 T00121109  RH  040%=      5-min Rain = 0
KCH1 111757Z 34013KT 01/M11 A3024 RMK A01 T00121109  RH  040%=      5-min Rain = 0
KCH1 111758Z 35011KT 01/M11 A3024 RMK A01 T00121109  RH  040%=      5-min Rain = 0
KCH1 111759Z 36010KT 01/M11 A3024 RMK A01 T00111110  RH  040%=      5-min Rain = 0
KCH1 111800Z 35011KT 01/M11 A3024 RMK A01 T00121108  RH  040%=      5-min Rain = 0
KCH1 111801Z 36011KT 01/M11 A3024 RMK A01 T00131109  RH  040%=      5-min Rain = 0
KCH1 111802Z 01011KT 01/M11 A3024 RMK A01 T00141108  RH  040%=      5-min Rain = 0
KCH1 111803Z 35011KT 02/M11 A3024 RMK A01 T00151108  RH  040%=      5-min Rain = 0
KCH1 111804Z 33012KT 02/M11 A3024 RMK A01 T00151108  RH  039%=      5-min Rain = 0
KCH1 111805Z 33012G17KT 01/M11 A3024 RMK A01 T00121111  RH  039%=      5-min Rain = 0
KCH1 111806Z 32015KT 01/M11 A3023 RMK A01 T00141108  RH  040%=      5-min Rain = 0
KCH1 111807Z 33016KT 01/M11 A3023 RMK A01 T00141109  RH  039%=      5-min Rain = 0
KCH1 111808Z 34013KT 01/M11 A3023 RMK A01 T00111112  RH  039%=      5-min Rain = 0
KCH1 111809Z 34013KT 01/M11 A3023 RMK A01 T00121110  RH  040%=      5-min Rain = 0
KCH1 111810Z 35014KT 01/M11 A3023 RMK A01 T00131109  RH  040%=      5-min Rain = 0
KCH1 111811Z 36011G18KT 02/M11 A3023 RMK A01 T00151109  RH  039%=      5-min Rain = 0
KCH1 111812Z 35013KT 02/M11 A3023 RMK A01 T00151110  RH  039%=      5-min Rain = 0
KCH1 111813Z 01010KT 01/M11 A3023 RMK A01 T00131110  RH  039%=      5-min Rain = 0
KCH1 111814Z 34015KT 02/M11 A3023 RMK A01 T00151108  RH  039%=      5-min Rain = 0
KCH1 111815Z 34013G20KT 02/M11 A3023 RMK A01 T00151109  RH  039%=      5-min Rain = 0
KCH1 111816Z 34013KT 02/M11 A3024 RMK A01 T00171107  RH  039%=      5-min Rain = 0
KCH1 111817Z 34011KT 02/M11 A3023 RMK A01 T00171110  RH  038%=      5-min Rain = 0
KCH1 111818Z 34007KT 01/M11 A3023 RMK A01 T00141111  RH  039%=      5-min Rain = 0
KCH1 111819Z 35009KT 01/M11 A3023 RMK A01 T00121112  RH  039%=      5-min Rain = 0
KCH1 111820Z 35012KT 01/M11 A3023 RMK A01 T00131109  RH  040%=      5-min Rain = 0
KCH1 111821Z 35014KT 02/M11 A3024 RMK A01 T00161108  RH  039%=      5-min Rain = 0
KCH1 111822Z 35010KT 02/M11 A3024 RMK A01 T00161109  RH  039%=      5-min Rain = 0
KCH1 111823Z 35009KT 02/M11 A3023 RMK A01 T00181108  RH  039%=      5-min Rain = 0
KCH1 111824Z 00008KT 02/M11 A3023 RMK A01 T00221105  RH  038%=      5-min Rain = 0
KCH1 111825Z 00010KT 03/M11 A3023 RMK A01 T00271105  RH  037%=      5-min Rain = 0
KCH1 111826Z 35010G15KT 03/M11 A3023 RMK A01 T00261109  RH  036%=      5-min Rain = 0
KCH1 111827Z 33010KT 02/M11 A3023 RMK A01 T00211112  RH  037%=      5-min Rain = 0
KCH1 111828Z 34009G14KT 02/M11 A3023 RMK A01 T00211109  RH  038%=      5-min Rain = 0
KCH1 111829Z 01010KT 02/M11 A3023 RMK A01 T00231108  RH  037%=      5-min Rain = 0
KCH1 111830Z 35011G17KT 02/M11 A3023 RMK A01 T00231109  RH  037%=      5-min Rain = 0
KCH1 111831Z 02012KT 02/M11 A3023 RMK A01 T00221110  RH  037%=      5-min Rain = 0
KCH1 111832Z 01010KT 02/M11 A3023 RMK A01 T00211111  RH  037%=      5-min Rain = 0
KCH1 111833Z 02010KT 02/M11 A3023 RMK A01 T00191112  RH  037%=      5-min Rain = 0
KCH1 111834Z 00013G18KT 02/M11 A3023 RMK A01 T00191111  RH  038%=      5-min Rain = 0
KCH1 111835Z 35016KT 02/M11 A3023 RMK A01 T00181112  RH  037%=      5-min Rain = 0
KCH1 111836Z 34013KT 02/M11 A3023 RMK A01 T00151114  RH  038%=      5-min Rain = 0
KCH1 111837Z 36009KT 01/M11 A3023 RMK A01 T00141113  RH  038%=      5-min Rain = 0
KCH1 111838Z 00012KT 01/M11 A3023 RMK A01 T00141113  RH  038%=      5-min Rain = 0
KCH1 111839Z 36011KT 01/M11 A3023 RMK A01 T00121114  RH  038%=      5-min Rain = 0
KCH1 111840Z 01010KT 01/M11 A3023 RMK A01 T00101114  RH  039%=      5-min Rain = 0
KCH1 111841Z 01009KT 01/M11 A3023 RMK A01 T00101113  RH  039%=      5-min Rain = 0
KCH1 111842Z 03010KT 01/M11 A3023 RMK A01 T00111112  RH  039%=      5-min Rain = 0
KCH1 111843Z 35008G14KT 02/M11 A3023 RMK A01 T00161108  RH  039%=      5-min Rain = 0
KCH1 111844Z 32008KT 02/M11 A3022 RMK A01 T00191109  RH  038%=      5-min Rain = 0
KCH1 111845Z 35011KT 02/M11 A3022 RMK A01 T00171112  RH  038%=      5-min Rain = 0
KCH1 111846Z 36012KT 02/M11 A3022 RMK A01 T00151113  RH  038%=      5-min Rain = 0
KCH1 111847Z 01009KT 01/M11 A3022 RMK A01 T00131114  RH  038%=      5-min Rain = 0
KCH1 111848Z 36013KT 01/M11 A3022 RMK A01 T00121114  RH  039%=      5-min Rain = 0
KCH1 111849Z 33014G20KT 01/M11 A3022 RMK A01 T00141111  RH  039%=      5-min Rain = 0
KCH1 111850Z 33013G18KT 02/M11 A3022 RMK A01 T00151113  RH  038%=      5-min Rain = 0
KCH1 111851Z 33011KT 01/M11 A3022 RMK A01 T00131114  RH  038%=      5-min Rain = 0
KCH1 111852Z 34012KT 01/M11 A3022 RMK A01 T00141112  RH  039%=      5-min Rain = 0
KCH1 111853Z 35011KT 02/M11 A3022 RMK A01 T00151112  RH  038%=      5-min Rain = 0
KCH1 111854Z 34012KT 02/M11 A3022 RMK A01 T00181111  RH  038%=      5-min Rain = 0
KCH1 111855Z 34008KT 02/M11 A3022 RMK A01 T00181113  RH  037%=      5-min Rain = 0
KCH1 111856Z 34009KT 02/M11 A3022 RMK A01 T00191112  RH  037%=      5-min Rain = 0
KCH1 111857Z 33009G14KT 02/M11 A3022 RMK A01 T00211110  RH  037%=      5-min Rain = 0
KCH1 111858Z 32012KT 02/M11 A3022 RMK A01 T00241110  RH  037%=      5-min Rain = 0
KCH1 111859Z 32009G14KT 02/M11 A3022 RMK A01 T00201114  RH  036%=      5-min Rain = 0
KCH1 111900Z 34009G14KT 02/M11 A3022 RMK A01 T00231109  RH  037%=      5-min Rain = 0
KCH1 111901Z 36007G12KT 03/M11 A3022 RMK A01 T00291107  RH  036%=      5-min Rain = 0
KCH1 111902Z 01008KT 03/M11 A3022 RMK A01 T00301110  RH  035%=      5-min Rain = 0
KCH1 111903Z 02010G15KT 03/M11 A3022 RMK A01 T00281112  RH  035%=      5-min Rain = 0
KCH1 111904Z 01015KT 03/M11 A3022 RMK A01 T00271112  RH  035%=      5-min Rain = 0
KCH1 111905Z 00012KT 02/M12 A3022 RMK A01 T00241115  RH  035%=      5-min Rain = 0
KCH1 111906Z 34008KT 02/M12 A3022 RMK A01 T00201116  RH  036%=      5-min Rain = 0
KCH1 111907Z 34012G18KT 02/M11 A3022 RMK A01 T00211113  RH  036%=      5-min Rain = 0
KCH1 111908Z 02013KT 02/M11 A3022 RMK A01 T00221113  RH  036%=      5-min Rain = 0
KCH1 111909Z 01012G17KT 03/M11 A3022 RMK A01 T00251111  RH  036%=      5-min Rain = 0
KCH1 111910Z 01009KT 02/M11 A3022 RMK A01 T00241113  RH  036%=      5-min Rain = 0
KCH1 111911Z 00010KT 03/M11 A3022 RMK A01 T00261112  RH  035%=      5-min Rain = 0
KCH1 111912Z 00007G12KT 02/M12 A3021 RMK A01 T00241115  RH  035%=      5-min Rain = 0
KCH1 111913Z 01009KT 02/M11 A3021 RMK A01 T00221114  RH  036%=      5-min Rain = 0
KCH1 111914Z 01011KT 02/M11 A3021 RMK A01 T00231113  RH  036%=      5-min Rain = 0
KCH1 111915Z 34010KT 03/M11 A3021 RMK A01 T00251112  RH  036%=      5-min Rain = 0
KCH1 111916Z 34010KT 02/M12 A3021 RMK A01 T00241115  RH  035%=      5-min Rain = 0
KCH1 111917Z 35008KT 02/M12 A3021 RMK A01 T00211115  RH  036%=      5-min Rain = 0
KCH1 111918Z 01007KT 03/M11 A3021 RMK A01 T00251109  RH  036%=      5-min Rain = 0
KCH1 111919Z 01008KT 03/M11 A3021 RMK A01 T00301108  RH  036%=      5-min Rain = 0
KCH1 111920Z 34011KT 03/M11 A3021 RMK A01 T00311110  RH  035%=      5-min Rain = 0
KCH1 111921Z 35008KT 03/M12 A3021 RMK A01 T00281115  RH  034%=      5-min Rain = 0
KCH1 111922Z 01010KT 03/M11 A3021 RMK A01 T00271113  RH  035%=      5-min Rain = 0
KCH1 111923Z 00012G17KT 03/M11 A3021 RMK A01 T00281112  RH  035%=      5-min Rain = 0
KCH1 111924Z 36008KT 03/M12 A3021 RMK A01 T00251116  RH  034%=      5-min Rain = 0
KCH1 111925Z 35006KT 02/M12 A3021 RMK A01 T00241115  RH  035%=      5-min Rain = 0
KCH1 111926Z 00009G14KT 03/M11 A3021 RMK A01 T00271111  RH  035%=      5-min Rain = 0
KCH1 111927Z 36010KT 03/M11 A3021 RMK A01 T00301110  RH  035%=      5-min Rain = 0
KCH1 111928Z 00012KT 03/M11 A3021 RMK A01 T00311112  RH  034%=      5-min Rain = 0
KCH1 111929Z 01011KT 03/M12 A3021 RMK A01 T00261117  RH  034%=      5-min Rain = 0
KCH1 111930Z 02009KT 03/M12 A3021 RMK A01 T00251115  RH  035%=      5-min Rain = 0
KCH1 111931Z 36007KT 03/M11 A3021 RMK A01 T00261113  RH  035%=      5-min Rain = 0
KCH1 111932Z 01009KT 03/M11 A3021 RMK A01 T00271113  RH  035%=      5-min Rain = 0
KCH1 111933Z 35010KT 03/M12 A3021 RMK A01 T00261115  RH  035%=      5-min Rain = 0
KCH1 111934Z 00008KT 02/M11 A3021 RMK A01 T00241114  RH  035%=      5-min Rain = 0
KCH1 111935Z 35011KT 03/M11 A3021 RMK A01 T00261114  RH  035%=      5-min Rain = 0
KCH1 111936Z 01010KT 03/M11 A3021 RMK A01 T00251114  RH  035%=      5-min Rain = 0
KCH1 111937Z 02008KT 03/M11 A3021 RMK A01 T00251114  RH  035%=      5-min Rain = 0
KCH1 111938Z 02007KT 03/M12 A302 RMK A01 T00251115  RH  035%=      5-min Rain = 0
KCH1 111939Z 02009KT 03/M11 A302 RMK A01 T00251114  RH  035%=      5-min Rain = 0
KCH1 111940Z 01009KT 03/M11 A302 RMK A01 T00271112  RH  035%=      5-min Rain = 0
KCH1 111941Z 02009KT 03/M11 A302 RMK A01 T00281113  RH  035%=      5-min Rain = 0
KCH1 111942Z 01006KT 03/M11 A302 RMK A01 T00281114  RH  034%=      5-min Rain = 0
KCH1 111943Z 36007G12KT 03/M11 A302 RMK A01 T00281113  RH  035%=      5-min Rain = 0
KCH1 111944Z 00012KT 03/M11 A302 RMK A01 T00301112  RH  034%=      5-min Rain = 0
KCH1 111945Z 35008KT 03/M12 A302 RMK A01 T00281115  RH  034%=      5-min Rain = 0
KCH1 111946Z 02005KT 03/M12 A302 RMK A01 T00251116  RH  035%=      5-min Rain = 0
KCH1 111947Z 00013G18KT 03/M11 A302 RMK A01 T00271113  RH  035%=      5-min Rain = 0
KCH1 111948Z 01012KT 03/M11 A302 RMK A01 T00271114  RH  035%=      5-min Rain = 0
KCH1 111949Z 34010G15KT 03/M12 A302 RMK A01 T00271115  RH  034%=      5-min Rain = 0
KCH1 111950Z 34011KT 03/M12 A302 RMK A01 T00251116  RH  034%=      5-min Rain = 0
KCH1 111951Z 01012KT 03/M11 A302 RMK A01 T00251114  RH  035%=      5-min Rain = 0
KCH1 111952Z 01009KT 03/M11 A302 RMK A01 T00271113  RH  035%=      5-min Rain = 0
KCH1 111953Z 01008KT 03/M11 A302 RMK A01 T00301112  RH  035%=      5-min Rain = 0
KCH1 111954Z 00012KT 03/M11 A302 RMK A01 T00301113  RH  034%=      5-min Rain = 0
KCH1 111955Z 35012KT 03/M12 A3019 RMK A01 T00291115  RH  034%=      5-min Rain = 0
KCH1 111956Z 36010KT 03/M11 A302 RMK A01 T00291114  RH  034%=      5-min Rain = 0
KCH1 111957Z 01010KT 03/M11 A302 RMK A01 T00291114  RH  034%=      5-min Rain = 0
KCH1 111958Z 00008KT 03/M11 A302 RMK A01 T00291114  RH  034%=      5-min Rain = 0
KCH1 111959Z 00010KT 03/M11 A3019 RMK A01 T00301114  RH  034%=      5-min Rain = 0
KCH1 112000Z 34008KT 03/M11 A3019 RMK A01 T00301114  RH  034%=      5-min Rain = 0
KCH1 112001Z 32006KT 03/M11 A3019 RMK A01 T00301113  RH  034%=      5-min Rain = 0
KCH1 112002Z 30007KT 03/M11 A3019 RMK A01 T00321111  RH  034%=      5-min Rain = 0
KCH1 112003Z 32008KT 03/M11 A3019 RMK A01 T00341112  RH  033%=      5-min Rain = 0
KCH1 112004Z 33006KT 03/M11 A3019 RMK A01 T00341114  RH  033%=      5-min Rain = 0
KCH1 112005Z 35003KT 03/M11 A3019 RMK A01 T00321113  RH  033%=      5-min Rain = 0
KCH1 112006Z 36007G12KT 04/M11 A3019 RMK A01 T00371109  RH  034%=      5-min Rain = 0
KCH1 112007Z 00009KT 04/M11 A3019 RMK A01 T00411109  RH  033%=      5-min Rain = 0
KCH1 112008Z 01007KT 04/M11 A3019 RMK A01 T00431110  RH  032%=      5-min Rain = 0
KCH1 112009Z 36007KT 04/M11 A3019 RMK A01 T00441111  RH  031%=      5-min Rain = 0
KCH1 112010Z 35006KT 04/M11 A3019 RMK A01 T00421114  RH  031%=      5-min Rain = 0
KCH1 112011Z 34005KT 04/M11 A3019 RMK A01 T00401113  RH  032%=      5-min Rain = 0
KCH1 112012Z 33008KT 04/M11 A3019 RMK A01 T00431110  RH  032%=      5-min Rain = 0
KCH1 112013Z 32008KT 05/M11 A3019 RMK A01 T00451110  RH  032%=      5-min Rain = 0
KCH1 112014Z 30008G13KT 04/M11 A3018 RMK A01 T00441111  RH  031%=      5-min Rain = 0
KCH1 112015Z 33011KT 04/M11 A3018 RMK A01 T00441110  RH  032%=      5-min Rain = 0
KCH1 112016Z 35011KT 05/M11 A3019 RMK A01 T00491106  RH  032%=      5-min Rain = 0
KCH1 112017Z 35010KT 05/M11 A3019 RMK A01 T00491112  RH  030%=      5-min Rain = 0
KCH1 112018Z 35008KT 05/M12 A3018 RMK A01 T00451115  RH  030%=      5-min Rain = 0
KCH1 112019Z 34007G17KT 04/M11 A3018 RMK A01 T00421114  RH  031%=      5-min Rain = 0
KCH1 112020Z 33011KT 04/M11 A3018 RMK A01 T00441112  RH  031%=      5-min Rain = 0
KCH1 112021Z 32012KT 04/M11 A3018 RMK A01 T00431114  RH  031%=      5-min Rain = 0
KCH1 112022Z 32008KT 04/M12 A3018 RMK A01 T00411115  RH  031%=      5-min Rain = 0
KCH1 112023Z 33007KT 04/M11 A3018 RMK A01 T00421112  RH  032%=      5-min Rain = 0
KCH1 112024Z 01010KT 04/M11 A3018 RMK A01 T00441111  RH  031%=      5-min Rain = 0
KCH1 112025Z 02009KT 04/M11 A3018 RMK A01 T00441112  RH  031%=      5-min Rain = 0
KCH1 112026Z 02011KT 05/M11 A3018 RMK A01 T00471110  RH  031%=      5-min Rain = 0
KCH1 112027Z 01011KT 05/M11 A3018 RMK A01 T00481111  RH  030%=      5-min Rain = 0
KCH1 112028Z 01008KT 05/M11 A3019 RMK A01 T00481111  RH  030%=      5-min Rain = 0
KCH1 112029Z 36006G11KT 05/M11 A3018 RMK A01 T00491111  RH  030%=      5-min Rain = 0
KCH1 112030Z 36004KT 05/M11 A3018 RMK A01 T00511109  RH  030%=      5-min Rain = 0
KCH1 112031Z 35006KT 05/M11 A3018 RMK A01 T00511111  RH  030%=      5-min Rain = 0
KCH1 112032Z 35008G14KT 05/M11 A3018 RMK A01 T00511112  RH  030%=      5-min Rain = 0
KCH1 112033Z 34010KT 05/M11 A3018 RMK A01 T00491113  RH  030%=      5-min Rain = 0
KCH1 112034Z 02010G17KT 05/M11 A3018 RMK A01 T00471114  RH  030%=      5-min Rain = 0
KCH1 112035Z 35012KT 05/M11 A3018 RMK A01 T00461114  RH  030%=      5-min Rain = 0
KCH1 112036Z 36008KT 04/M12 A3018 RMK A01 T00431115  RH  031%=      5-min Rain = 0
KCH1 112037Z 01008KT 04/M11 A3018 RMK A01 T00431114  RH  031%=      5-min Rain = 0
KCH1 112038Z 01010KT 04/M11 A3018 RMK A01 T00421114  RH  031%=      5-min Rain = 0
KCH1 112039Z 02008KT 04/M11 A3018 RMK A01 T00421113  RH  031%=      5-min Rain = 0
KCH1 112040Z 01009KT 04/M11 A3018 RMK A01 T00421113  RH  031%=      5-min Rain = 0
KCH1 112041Z 02008KT 04/M11 A3018 RMK A01 T00421113  RH  031%=      5-min Rain = 0
KCH1 112042Z 01010KT 04/M11 A3018 RMK A01 T00421113  RH  031%=      5-min Rain = 0
KCH1 112043Z 01011KT 04/M11 A3018 RMK A01 T00441112  RH  031%=      5-min Rain = 0
KCH1 112044Z 00010KT 04/M11 A3018 RMK A01 T00441112  RH  031%=      5-min Rain = 0
KCH1 112045Z 36010KT 05/M11 A3018 RMK A01 T00451112  RH  031%=      5-min Rain = 0
KCH1 112046Z 01011KT 05/M11 A3018 RMK A01 T00451112  RH  031%=      5-min Rain = 0
KCH1 112047Z 01010KT 05/M11 A3018 RMK A01 T00451113  RH  031%=      5-min Rain = 0
KCH1 112048Z 02008KT 04/M11 A3018 RMK A01 T00431114  RH  031%=      5-min Rain = 0
KCH1 112049Z 36005KT 04/M11 A3018 RMK A01 T00421114  RH  031%=      5-min Rain = 0
KCH1 112050Z 01006KT 04/M11 A3018 RMK A01 T00421113  RH  031%=      5-min Rain = 0
KCH1 112051Z 01012KT 04/M11 A3018 RMK A01 T00431113  RH  031%=      5-min Rain = 0
KCH1 112052Z 00010KT 04/M11 A3018 RMK A01 T00421113  RH  031%=      5-min Rain = 0
KCH1 112053Z 35010KT 04/M11 A3018 RMK A01 T00431112  RH  031%=      5-min Rain = 0
KCH1 112054Z 34009KT 04/M11 A3018 RMK A01 T00421114  RH  031%=      5-min Rain = 0
KCH1 112055Z 35010KT 04/M12 A3018 RMK A01 T00401115  RH  031%=      5-min Rain = 0
KCH1 112056Z 36008KT 04/M12 A3018 RMK A01 T00381115  RH  032%=      5-min Rain = 0
KCH1 112057Z 34008KT 04/M11 A3018 RMK A01 T00381114  RH  032%=      5-min Rain = 0
KCH1 112058Z 36008KT 04/M11 A3018 RMK A01 T00391113  RH  032%=      5-min Rain = 0
KCH1 112059Z 01010G15KT 04/M11 A3018 RMK A01 T00401113  RH  032%=      5-min Rain = 0
KCH1 112100Z 35009KT 04/M11 A3018 RMK A01 T00391114  RH  032%=      5-min Rain = 0
KCH1 112101Z 00010KT 04/M12 A3018 RMK A01 T00371115  RH  032%=      5-min Rain = 0
KCH1 112102Z 00009KT 04/M11 A3018 RMK A01 T00371114  RH  032%=      5-min Rain = 0
KCH1 112103Z 01008KT 04/M11 A3018 RMK A01 T00371114  RH  032%=      5-min Rain = 0
KCH1 112104Z 02007KT 04/M11 A3018 RMK A01 T00381113  RH  032%=      5-min Rain = 0
KCH1 112105Z 01008KT 04/M11 A3018 RMK A01 T00391113  RH  032%=      5-min Rain = 0
KCH1 112106Z 36009KT 04/M11 A3018 RMK A01 T00381114  RH  032%=      5-min Rain = 0
KCH1 112107Z 34007KT 04/M11 A3018 RMK A01 T00371114  RH  032%=      5-min Rain = 0
KCH1 112108Z 36007KT 04/M11 A3018 RMK A01 T00371113  RH  032%=      5-min Rain = 0
KCH1 112109Z 35006KT 04/M11 A3018 RMK A01 T00381113  RH  032%=      5-min Rain = 0
KCH1 112110Z 00009KT 04/M11 A3018 RMK A01 T00401112  RH  032%=      5-min Rain = 0
KCH1 112111Z 00009KT 04/M11 A3018 RMK A01 T00401113  RH  032%=      5-min Rain = 0
KCH1 112112Z 36008KT 04/M11 A3018 RMK A01 T00411112  RH  032%=      5-min Rain = 0
KCH1 112113Z 00010KT 04/M11 A3018 RMK A01 T00421112  RH  032%=      5-min Rain = 0
KCH1 112114Z 01010KT 04/M11 A3018 RMK A01 T00431112  RH  031%=      5-min Rain = 0
KCH1 112115Z 35008KT 04/M11 A3018 RMK A01 T00421114  RH  031%=      5-min Rain = 0
KCH1 112116Z 35010KT 04/M11 A3018 RMK A01 T00421113  RH  031%=      5-min Rain = 0
KCH1 112117Z 36008KT 04/M11 A3018 RMK A01 T00411114  RH  031%=      5-min Rain = 0
KCH1 112118Z 01007G12KT 04/M11 A3018 RMK A01 T00421112  RH  032%=      5-min Rain = 0
KCH1 112119Z 35009KT 05/M11 A3018 RMK A01 T00451110  RH  031%=      5-min Rain = 0
KCH1 112120Z 35009KT 05/M11 A3018 RMK A01 T00471110  RH  031%=      5-min Rain = 0
KCH1 112121Z 35008KT 05/M11 A3018 RMK A01 T00481112  RH  030%=      5-min Rain = 0
KCH1 112122Z 34006KT 05/M11 A3018 RMK A01 T00451114  RH  030%=      5-min Rain = 0
KCH1 112123Z 34009G14KT 05/M11 A3017 RMK A01 T00451112  RH  031%=      5-min Rain = 0
KCH1 112124Z 35010KT 05/M11 A3018 RMK A01 T00491110  RH  031%=      5-min Rain = 0
KCH1 112125Z 03007KT 05/M11 A3018 RMK A01 T00491110  RH  030%=      5-min Rain = 0
KCH1 112126Z 03007KT 05/M11 A3018 RMK A01 T00501111  RH  030%=      5-min Rain = 0
KCH1 112127Z 01010KT 05/M11 A3018 RMK A01 T00501112  RH  030%=      5-min Rain = 0
KCH1 112128Z 01012KT 05/M11 A3018 RMK A01 T00481113  RH  030%=      5-min Rain = 0
KCH1 112129Z 01010KT 05/M11 A3018 RMK A01 T00471113  RH  030%=      5-min Rain = 0
KCH1 112130Z 02011KT 05/M11 A3018 RMK A01 T00471112  RH  031%=      5-min Rain = 0
KCH1 112131Z 01008KT 05/M11 A3018 RMK A01 T00471112  RH  031%=      5-min Rain = 0
KCH1 112132Z 02008KT 05/M11 A3018 RMK A01 T00461112  RH  031%=      5-min Rain = 0
KCH1 112133Z 01006KT 05/M11 A3018 RMK A01 T00461112  RH  031%=      5-min Rain = 0
KCH1 112134Z 35009KT 05/M11 A3018 RMK A01 T00471111  RH  031%=      5-min Rain = 0
KCH1 112135Z 36009KT 05/M11 A3018 RMK A01 T00471111  RH  031%=      5-min Rain = 0
KCH1 112136Z 36009KT 05/M11 A3018 RMK A01 T00491111  RH  031%=      5-min Rain = 0
KCH1 112137Z 01011KT 05/M11 A3018 RMK A01 T00511111  RH  030%=      5-min Rain = 0
KCH1 112138Z 00008KT 05/M11 A3018 RMK A01 T00491113  RH  030%=      5-min Rain = 0
KCH1 112139Z 35007KT 05/M11 A3018 RMK A01 T00471114  RH  030%=      5-min Rain = 0
KCH1 112140Z 33010KT 05/M11 A3018 RMK A01 T00461113  RH  030%=      5-min Rain = 0
KCH1 112141Z 34010KT 05/M11 A3018 RMK A01 T00471112  RH  031%=      5-min Rain = 0
KCH1 112142Z 35009KT 05/M11 A3018 RMK A01 T00491111  RH  030%=      5-min Rain = 0
KCH1 112143Z 00010KT 05/M11 A3018 RMK A01 T00491112  RH  030%=      5-min Rain = 0
KCH1 112144Z 01008KT 05/M11 A3018 RMK A01 T00481113  RH  030%=      5-min Rain = 0
KCH1 112145Z 01006KT 05/M11 A3018 RMK A01 T00471113  RH  030%=      5-min Rain = 0
KCH1 112146Z 02005KT 05/M11 A3018 RMK A01 T00461113  RH  031%=      5-min Rain = 0
KCH1 112147Z 35006G12KT 05/M11 A3018 RMK A01 T00451112  RH  031%=      5-min Rain = 0
KCH1 112148Z 35008KT 05/M11 A3018 RMK A01 T00481111  RH  031%=      5-min Rain = 0
KCH1 112149Z 36006KT 05/M11 A3018 RMK A01 T00451113  RH  030%=      5-min Rain = 0
KCH1 112150Z 35007KT 04/M11 A3018 RMK A01 T00441113  RH  031%=      5-min Rain = 0
KCH1 112151Z 35011KT 05/M11 A3017 RMK A01 T00461110  RH  031%=      5-min Rain = 0
KCH1 112152Z 36013KT 05/M11 A3018 RMK A01 T00491110  RH  031%=      5-min Rain = 0
KCH1 112153Z 00010KT 05/M11 A3018 RMK A01 T00481111  RH  030%=      5-min Rain = 0
KCH1 112154Z 01006KT 05/M11 A3018 RMK A01 T00481111  RH  031%=      5-min Rain = 0
KCH1 112155Z 35005KT 05/M11 A3018 RMK A01 T00491110  RH  030%=      5-min Rain = 0
KCH1 112156Z 36007KT 05/M11 A3018 RMK A01 T00511110  RH  030%=      5-min Rain = 0
KCH1 112157Z 34009KT 05/M11 A3018 RMK A01 T00511110  RH  030%=      5-min Rain = 0
KCH1 112158Z 34009KT 05/M11 A3018 RMK A01 T00511111  RH  030%=      5-min Rain = 0
KCH1 112159Z 34006KT 05/M11 A3018 RMK A01 T00481113  RH  030%=      5-min Rain = 0
KCH1 112200Z 03007KT 05/M11 A3018 RMK A01 T00481111  RH  031%=      5-min Rain = 0
KCH1 112201Z 04007KT 05/M11 A3018 RMK A01 T00501110  RH  030%=      5-min Rain = 0
KCH1 112202Z 03006KT 05/M11 A3018 RMK A01 T00491112  RH  030%=      5-min Rain = 0
KCH1 112203Z 03007KT 05/M11 A3018 RMK A01 T00491110  RH  030%=      5-min Rain = 0
KCH1 112204Z 36007KT 05/M11 A3018 RMK A01 T00511109  RH  030%=      5-min Rain = 0
KCH1 112205Z 34009KT 05/M11 A3018 RMK A01 T00511110  RH  030%=      5-min Rain = 0
KCH1 112206Z 33009KT 05/M11 A3018 RMK A01 T00511111  RH  030%=      5-min Rain = 0
KCH1 112207Z 34007KT 05/M11 A3018 RMK A01 T00511111  RH  030%=      5-min Rain = 0
KCH1 112208Z 35007KT 05/M11 A3018 RMK A01 T00511110  RH  030%=      5-min Rain = 0
KCH1 112209Z 36007KT 05/M11 A3018 RMK A01 T00511111  RH  030%=      5-min Rain = 0
KCH1 112210Z 34006KT 05/M11 A3018 RMK A01 T00501111  RH  030%=      5-min Rain = 0
KCH1 112211Z 35007KT 05/M11 A3018 RMK A01 T00491111  RH  030%=      5-min Rain = 0
KCH1 112212Z 35008KT 05/M11 A3018 RMK A01 T00491111  RH  030%=      5-min Rain = 0
KCH1 112213Z 01008KT 05/M11 A3018 RMK A01 T00481111  RH  031%=      5-min Rain = 0
KCH1 112214Z 02005KT 05/M11 A3018 RMK A01 T00501108  RH  031%=      5-min Rain = 0
KCH1 112215Z 03006KT 05/M11 A3018 RMK A01 T00531107  RH  031%=      5-min Rain = 0
KCH1 112216Z 02008KT 05/M11 A3018 RMK A01 T00531108  RH  030%=      5-min Rain = 0
KCH1 112217Z 01007KT 05/M11 A3018 RMK A01 T00531109  RH  030%=      5-min Rain = 0
KCH1 112218Z 01005KT 05/M11 A3018 RMK A01 T00511109  RH  030%=      5-min Rain = 0
KCH1 112219Z 03007KT 05/M11 A3018 RMK A01 T00531107  RH  030%=      5-min Rain = 0
KCH1 112220Z 00008KT 05/M11 A3018 RMK A01 T00531108  RH  030%=      5-min Rain = 0
KCH1 112221Z 35010KT 05/M11 A3018 RMK A01 T00541108  RH  030%=      5-min Rain = 0
KCH1 112222Z 35009KT 05/M11 A3018 RMK A01 T00531109  RH  030%=      5-min Rain = 0
KCH1 112223Z 35007KT 05/M11 A3018 RMK A01 T00521110  RH  030%=      5-min Rain = 0
KCH1 112224Z 33007KT 05/M11 A3018 RMK A01 T00521109  RH  030%=      5-min Rain = 0
KCH1 112225Z 34005KT 05/M11 A3018 RMK A01 T00531109  RH  030%=      5-min Rain = 0
KCH1 112226Z 36008KT 06/M11 A3018 RMK A01 T00551107  RH  030%=      5-min Rain = 0
KCH1 112227Z 36008KT 05/M11 A3018 RMK A01 T00541110  RH  029%=      5-min Rain = 0
KCH1 112228Z 35007KT 05/M11 A3018 RMK A01 T00531111  RH  030%=      5-min Rain = 0
KCH1 112229Z 01008KT 05/M11 A3018 RMK A01 T00531110  RH  030%=      5-min Rain = 0
KCH1 112230Z 36010KT 05/M11 A3018 RMK A01 T00541109  RH  030%=      5-min Rain = 0
KCH1 112231Z 35009KT 05/M11 A3018 RMK A01 T00541109  RH  030%=      5-min Rain = 0
KCH1 112232Z 35009KT 05/M11 A3018 RMK A01 T00541109  RH  030%=      5-min Rain = 0
KCH1 112233Z 35006KT 05/M11 A3018 RMK A01 T00531110  RH  030%=      5-min Rain = 0
KCH1 112234Z 35006KT 05/M11 A3018 RMK A01 T00511110  RH  030%=      5-min Rain = 0
KCH1 112235Z 01005KT 05/M11 A3018 RMK A01 T00521108  RH  030%=      5-min Rain = 0
KCH1 112236Z 36009KT 05/M11 A3018 RMK A01 T00541108  RH  030%=      5-min Rain = 0
KCH1 112237Z 34010KT 05/M11 A3018 RMK A01 T00521110  RH  030%=      5-min Rain = 0
KCH1 112238Z 35010KT 05/M11 A3018 RMK A01 T00491111  RH  030%=      5-min Rain = 0
KCH1 112239Z 35009KT 05/M11 A3018 RMK A01 T00471110  RH  031%=      5-min Rain = 0
KCH1 112240Z 34010KT 05/M11 A3018 RMK A01 T00461110  RH  031%=      5-min Rain = 0
KCH1 112241Z 34011KT 05/M11 A3018 RMK A01 T00461110  RH  031%=      5-min Rain = 0
KCH1 112242Z 36008KT 05/M11 A3018 RMK A01 T00451109  RH  031%=      5-min Rain = 0
KCH1 112243Z 36009KT 05/M11 A3018 RMK A01 T00451109  RH  032%=      5-min Rain = 0
KCH1 112244Z 35010KT 05/M11 A3018 RMK A01 T00451109  RH  031%=      5-min Rain = 0
KCH1 112245Z 00008KT 05/M11 A3018 RMK A01 T00461110  RH  031%=      5-min Rain = 0
KCH1 112246Z 36009KT 05/M11 A3018 RMK A01 T00451110  RH  031%=      5-min Rain = 0
KCH1 112247Z 00009KT 05/M11 A3018 RMK A01 T00451110  RH  031%=      5-min Rain = 0
KCH1 112248Z 00008KT 05/M11 A3018 RMK A01 T00451110  RH  031%=      5-min Rain = 0
KCH1 112249Z 36008KT 05/M11 A3018 RMK A01 T00461110  RH  031%=      5-min Rain = 0
KCH1 112250Z 36004KT 05/M11 A3018 RMK A01 T00461111  RH  031%=      5-min Rain = 0
KCH1 112251Z 35005KT 05/M11 A3018 RMK A01 T00471110  RH  031%=      5-min Rain = 0
KCH1 112252Z 36005KT 05/M11 A3017 RMK A01 T00471110  RH  031%=      5-min Rain = 0
KCH1 112253Z 35008KT 05/M11 A3017 RMK A01 T00481109  RH  031%=      5-min Rain = 0
KCH1 112254Z 35007KT 05/M11 A3018 RMK A01 T00491109  RH  031%=      5-min Rain = 0
KCH1 112255Z 33007KT 05/M11 A3018 RMK A01 T00491109  RH  031%=      5-min Rain = 0
KCH1 112256Z 35006KT 05/M11 A3018 RMK A01 T00501109  RH  031%=      5-min Rain = 0
KCH1 112257Z 35006KT 05/M11 A3018 RMK A01 T00511108  RH  030%=      5-min Rain = 0
KCH1 112258Z 35006KT 05/M11 A3018 RMK A01 T00521109  RH  030%=      5-min Rain = 0
KCH1 112259Z 35004KT 05/M11 A3018 RMK A01 T00531109  RH  030%=      5-min Rain = 0
KCH1 112300Z 35005KT 05/M11 A3018 RMK A01 T00531108  RH  030%=      5-min Rain = 0
KCH1 112301Z 00006KT 05/M11 A3018 RMK A01 T00541109  RH  030%=      5-min Rain = 0
KCH1 112302Z 01005KT 05/M11 A3018 RMK A01 T00531110  RH  030%=      5-min Rain = 0
KCH1 112303Z 01005KT 05/M11 A3018 RMK A01 T00521109  RH  030%=      5-min Rain = 0
KCH1 112304Z 02003KT 05/M11 A3018 RMK A01 T00511109  RH  030%=      5-min Rain = 0
KCH1 112305Z 03007KT 05/M11 A3018 RMK A01 T00511108  RH  031%=      5-min Rain = 0
KCH1 112306Z 01006KT 05/M11 A3018 RMK A01 T00501109  RH  031%=      5-min Rain = 0
KCH1 112307Z 03006KT 05/M11 A3018 RMK A01 T00491109  RH  031%=      5-min Rain = 0
KCH1 112308Z 02006KT 05/M11 A3018 RMK A01 T00501108  RH  031%=      5-min Rain = 0
KCH1 112309Z 01007KT 05/M11 A3018 RMK A01 T00521107  RH  031%=      5-min Rain = 0
KCH1 112310Z 02008KT 05/M11 A3018 RMK A01 T00531107  RH  030%=      5-min Rain = 0
KCH1 112311Z 02006KT 05/M11 A3018 RMK A01 T00531108  RH  030%=      5-min Rain = 0
KCH1 112312Z 00006KT 05/M11 A3018 RMK A01 T00531108  RH  030%=      5-min Rain = 0
KCH1 112313Z 01008KT 05/M11 A3018 RMK A01 T00531109  RH  030%=      5-min Rain = 0
KCH1 112314Z 01009KT 05/M11 A3018 RMK A01 T00531108  RH  030%=      5-min Rain = 0
KCH1 112315Z 00007KT 05/M11 A3018 RMK A01 T00541109  RH  030%=      5-min Rain = 0
KCH1 112316Z 36008KT 05/M11 A3018 RMK A01 T00531109  RH  030%=      5-min Rain = 0
KCH1 112317Z 35007KT 05/M11 A3018 RMK A01 T00531109  RH  030%=      5-min Rain = 0
KCH1 112318Z 00005KT 05/M11 A3018 RMK A01 T00521110  RH  030%=      5-min Rain = 0
KCH1 112319Z 00007KT 05/M11 A3018 RMK A01 T00521110  RH  030%=      5-min Rain = 0
KCH1 112320Z 01004KT 05/M11 A3018 RMK A01 T00511111  RH  030%=      5-min Rain = 0
KCH1 112321Z 02006KT 05/M11 A3018 RMK A01 T00511110  RH  030%=      5-min Rain = 0
KCH1 112322Z 02006KT 05/M11 A3018 RMK A01 T00511110  RH  030%=      5-min Rain = 0
KCH1 112323Z 01007KT 05/M11 A3018 RMK A01 T00521110  RH  030%=      5-min Rain = 0
KCH1 112324Z 00008KT 05/M11 A3018 RMK A01 T00531109  RH  030%=      5-min Rain = 0
KCH1 112325Z 00008KT 05/M11 A3018 RMK A01 T00531110  RH  030%=      5-min Rain = 0
KCH1 112326Z 01005KT 05/M11 A3018 RMK A01 T00531110  RH  030%=      5-min Rain = 0
KCH1 112327Z 03004KT 05/M11 A3018 RMK A01 T00531109  RH  030%=      5-min Rain = 0
KCH1 112328Z 03004KT 05/M11 A3018 RMK A01 T00541108  RH  030%=      5-min Rain = 0
KCH1 112329Z 04008KT 05/M11 A3018 RMK A01 T00541108  RH  030%=      5-min Rain = 0
KCH1 112330Z 04007KT 05/M11 A3018 RMK A01 T00531109  RH  030%=      5-min Rain = 0
KCH1 112331Z 03008KT 05/M11 A3018 RMK A01 T00521110  RH  030%=      5-min Rain = 0
KCH1 112332Z 02006KT 05/M11 A3019 RMK A01 T00511110  RH  030%=      5-min Rain = 0
KCH1 112333Z 35006KT 05/M11 A3019 RMK A01 T00511109  RH  030%=      5-min Rain = 0
KCH1 112334Z 34004KT 05/M11 A3019 RMK A01 T00501110  RH  030%=      5-min Rain = 0
KCH1 112335Z 34005KT 05/M11 A3019 RMK A01 T00501109  RH  031%=      5-min Rain = 0
KCH1 112336Z 02006KT 05/M11 A3019 RMK A01 T00501109  RH  031%=      5-min Rain = 0
KCH1 112337Z 02003KT 05/M11 A3019 RMK A01 T00491109  RH  031%=      5-min Rain = 0
KCH1 112338Z 01004KT 05/M11 A3019 RMK A01 T00481110  RH  031%=      5-min Rain = 0
KCH1 112339Z 01004KT 05/M11 A3019 RMK A01 T00471110  RH  031%=      5-min Rain = 0
KCH1 112340Z 03003KT 05/M11 A3019 RMK A01 T00471110  RH  031%=      5-min Rain = 0
KCH1 112341Z 03005KT 05/M11 A3019 RMK A01 T00461110  RH  031%=      5-min Rain = 0
KCH1 112342Z 05007KT 05/M11 A3019 RMK A01 T00461110  RH  031%=      5-min Rain = 0
KCH1 112343Z 04007KT 05/M11 A3019 RMK A01 T00451110  RH  031%=      5-min Rain = 0
KCH1 112344Z 03005KT 05/M11 A3019 RMK A01 T00451109  RH  032%=      5-min Rain = 0
KCH1 112345Z 04005KT 04/M11 A3019 RMK A01 T00441109  RH  032%=      5-min Rain = 0
KCH1 112346Z 04006KT 04/M11 A3019 RMK A01 T00431110  RH  032%=      5-min Rain = 0
KCH1 112347Z 04006KT 04/M11 A3019 RMK A01 T00431110  RH  032%=      5-min Rain = 0
KCH1 112348Z 04008KT 04/M11 A3019 RMK A01 T00421109  RH  032%=      5-min Rain = 0
KCH1 112349Z 04007KT 04/M11 A3019 RMK A01 T00421110  RH  032%=      5-min Rain = 0
KCH1 112350Z 03005KT 04/M11 A3019 RMK A01 T00421110  RH  032%=      5-min Rain = 0
KCH1 112351Z 04004KT 04/M11 A3019 RMK A01 T00421109  RH  032%=      5-min Rain = 0
KCH1 112352Z 05005KT 04/M11 A3019 RMK A01 T00411110  RH  032%=      5-min Rain = 0
KCH1 112353Z 06004KT 04/M11 A3019 RMK A01 T00401110  RH  033%=      5-min Rain = 0
KCH1 112354Z 05004KT 04/M11 A3019 RMK A01 T00401110  RH  033%=      5-min Rain = 0
KCH1 112355Z 05004KT 04/M11 A3019 RMK A01 T00391111  RH  033%=      5-min Rain = 0
KCH1 112356Z 05004KT 04/M11 A3019 RMK A01 T00391110  RH  033%=      5-min Rain = 0
KCH1 112357Z 04006KT 04/M11 A3019 RMK A01 T00381110  RH  033%=      5-min Rain = 0
KCH1 112358Z 04006KT 04/M11 A3019 RMK A01 T00371110  RH  033%=      5-min Rain = 0
KCH1 112359Z 04005KT 04/M11 A3019 RMK A01 T00371110  RH  033%=      5-min Rain = 0
KCH1 120000Z 04004KT 04/M11 A3019 RMK A01 T00371109  RH  033%=      5-min Rain = 0
KCH1 120001Z 05004KT 04/M11 A3019 RMK A01 T00371109  RH  033%=      5-min Rain = 0
KCH1 120002Z 05004KT 04/M11 A3019 RMK A01 T00371109  RH  033%=      5-min Rain = 0
KCH1 120003Z 05004KT 04/M11 A3019 RMK A01 T00371110  RH  033%=      5-min Rain = 0
KCH1 120004Z 05004KT 04/M11 A3019 RMK A01 T00371109  RH  034%=      5-min Rain = 0
KCH1 120005Z 04004KT 04/M11 A3019 RMK A01 T00361109  RH  034%=      5-min Rain = 0
KCH1 120006Z 04004KT 04/M11 A3019 RMK A01 T00361109  RH  034%=      5-min Rain = 0
KCH1 120007Z 05004KT 04/M11 A3019 RMK A01 T00351109  RH  034%=      5-min Rain = 0
KCH1 120008Z 04005KT 04/M11 A3019 RMK A01 T00351109  RH  034%=      5-min Rain = 0
KCH1 120009Z 03005KT 04/M11 A3019 RMK A01 T00351109  RH  034%=      5-min Rain = 0
KCH1 120010Z 04004KT 04/M11 A3019 RMK A01 T00351109  RH  034%=      5-min Rain = 0
KCH1 120011Z 03004KT 04/M11 A3019 RMK A01 T00361109  RH  034%=      5-min Rain = 0
KCH1 120012Z 04006KT 04/M11 A3019 RMK A01 T00351109  RH  034%=      5-min Rain = 0
KCH1 120013Z 04006KT 04/M11 A3019 RMK A01 T00351109  RH  034%=      5-min Rain = 0
KCH1 120014Z 04004KT 04/M11 A3019 RMK A01 T00351108  RH  034%=      5-min Rain = 0
KCH1 120015Z 04005KT 04/M11 A302 RMK A01 T00351108  RH  034%=      5-min Rain = 0
KCH1 120016Z 04005KT 04/M11 A302 RMK A01 T00351108  RH  034%=      5-min Rain = 0
KCH1 120017Z 04006KT 03/M11 A302 RMK A01 T00341108  RH  034%=      5-min Rain = 0
KCH1 120018Z 04005KT 03/M11 A302 RMK A01 T00341108  RH  034%=      5-min Rain = 0
KCH1 120019Z 04005KT 03/M11 A302 RMK A01 T00341108  RH  034%=      5-min Rain = 0
KCH1 120020Z 04006KT 03/M11 A302 RMK A01 T00341108  RH  034%=      5-min Rain = 0
KCH1 120021Z 04006KT 04/M11 A302 RMK A01 T00351108  RH  034%=      5-min Rain = 0
KCH1 120022Z 04005KT 03/M11 A302 RMK A01 T00341108  RH  034%=      5-min Rain = 0
KCH1 120023Z 04005KT 03/M11 A302 RMK A01 T00341108  RH  035%=      5-min Rain = 0
KCH1 120024Z 04005KT 03/M11 A302 RMK A01 T00331108  RH  035%=      5-min Rain = 0
KCH1 120025Z 04004KT 03/M11 A302 RMK A01 T00321109  RH  035%=      5-min Rain = 0
KCH1 120026Z 04004KT 03/M11 A302 RMK A01 T00321108  RH  035%=      5-min Rain = 0
KCH1 120027Z 03003KT 03/M11 A302 RMK A01 T00311108  RH  035%=      5-min Rain = 0
KCH1 120028Z 02003KT 03/M11 A302 RMK A01 T00311108  RH  035%=      5-min Rain = 0
KCH1 120029Z 02004KT 03/M11 A302 RMK A01 T00311108  RH  035%=      5-min Rain = 0
KCH1 120030Z 02004KT 03/M11 A302 RMK A01 T00311108  RH  035%=      5-min Rain = 0
KCH1 120031Z 03004KT 03/M11 A302 RMK A01 T00311108  RH  035%=      5-min Rain = 0
KCH1 120032Z 03004KT 03/M11 A302 RMK A01 T00311108  RH  035%=      5-min Rain = 0
KCH1 120033Z 03004KT 03/M11 A302 RMK A01 T00301108  RH  035%=      5-min Rain = 0
KCH1 120034Z 02004KT 03/M11 A302 RMK A01 T00291108  RH  036%=      5-min Rain = 0
KCH1 120035Z 03005KT 03/M11 A302 RMK A01 T00291109  RH  036%=      5-min Rain = 0
KCH1 120036Z 03005KT 03/M11 A302 RMK A01 T00291108  RH  036%=      5-min Rain = 0
KCH1 120037Z 03004KT 03/M11 A302 RMK A01 T00281108  RH  036%=      5-min Rain = 0
KCH1 120038Z 03004KT 03/M11 A302 RMK A01 T00281108  RH  036%=      5-min Rain = 0
KCH1 120039Z 03004KT 03/M11 A302 RMK A01 T00281108  RH  036%=      5-min Rain = 0
KCH1 120040Z 03004KT 03/M11 A302 RMK A01 T00281108  RH  036%=      5-min Rain = 0
KCH1 120041Z 03004KT 03/M11 A302 RMK A01 T00271108  RH  036%=      5-min Rain = 0
KCH1 120042Z 03004KT 03/M11 A3021 RMK A01 T00271108  RH  036%=      5-min Rain = 0
KCH1 120043Z 02004KT 03/M11 A3021 RMK A01 T00261108  RH  036%=      5-min Rain = 0
KCH1 120044Z 03004KT 03/M11 A3021 RMK A01 T00261108  RH  037%=      5-min Rain = 0
KCH1 120045Z 03004KT 03/M11 A3021 RMK A01 T00251109  RH  037%=      5-min Rain = 0
KCH1 120046Z 03004KT 02/M11 A3021 RMK A01 T00241109  RH  037%=      5-min Rain = 0
KCH1 120047Z 03004KT 03/M11 A3021 RMK A01 T00251108  RH  037%=      5-min Rain = 0
KCH1 120048Z 04004KT 03/M11 A3021 RMK A01 T00251108  RH  037%=      5-min Rain = 0
KCH1 120049Z 03004KT 02/M11 A3021 RMK A01 T00241108  RH  037%=      5-min Rain = 0
KCH1 120050Z 03004KT 03/M11 A3021 RMK A01 T00251108  RH  037%=      5-min Rain = 0
KCH1 120051Z 03004KT 02/M11 A3021 RMK A01 T00241109  RH  037%=      5-min Rain = 0
KCH1 120052Z 03004KT 02/M11 A3021 RMK A01 T00231109  RH  037%=      5-min Rain = 0
KCH1 120053Z 03004KT 02/M11 A3021 RMK A01 T00231109  RH  037%=      5-min Rain = 0
KCH1 120054Z 04004KT 02/M11 A3021 RMK A01 T00221109  RH  037%=      5-min Rain = 0
KCH1 120055Z 04004KT 02/M11 A3021 RMK A01 T00221109  RH  037%=      5-min Rain = 0
KCH1 120056Z 04004KT 02/M11 A3021 RMK A01 T00211109  RH  038%=      5-min Rain = 0
KCH1 120057Z 04004KT 02/M11 A3021 RMK A01 T00211108  RH  038%=      5-min Rain = 0
KCH1 120058Z 04004KT 02/M11 A3021 RMK A01 T00211108  RH  038%=      5-min Rain = 0
KCH1 120059Z 04004KT 02/M11 A3021 RMK A01 T00211108  RH  038%=      5-min Rain = 0
KCH1 120100Z 05004KT 02/M11 A3021 RMK A01 T00211108  RH  038%=      5-min Rain = 0
KCH1 120101Z 05004KT 02/M11 A3021 RMK A01 T00201108  RH  038%=      5-min Rain = 0
KCH1 120102Z 05004KT 02/M11 A3021 RMK A01 T00201109  RH  038%=      5-min Rain = 0
KCH1 120103Z 06004KT 02/M11 A3021 RMK A01 T00181110  RH  038%=      5-min Rain = 0
KCH1 120104Z 05004KT 02/M11 A3021 RMK A01 T00171110  RH  038%=      5-min Rain = 0
KCH1 120105Z 06004KT 02/M11 A3021 RMK A01 T00161110  RH  039%=      5-min Rain = 0
KCH1 120106Z 05004KT 02/M11 A3021 RMK A01 T00161110  RH  039%=      5-min Rain = 0
KCH1 120107Z 05004KT 02/M11 A3021 RMK A01 T00151110  RH  039%=      5-min Rain = 0
KCH1 120108Z 05004KT 02/M11 A3021 RMK A01 T00151109  RH  039%=      5-min Rain = 0
KCH1 120109Z 06004KT 02/M11 A3021 RMK A01 T00161109  RH  039%=      5-min Rain = 0
KCH1 120110Z 06004KT 02/M11 A3021 RMK A01 T00161109  RH  039%=      5-min Rain = 0
KCH1 120111Z 06004KT 02/M11 A3021 RMK A01 T00151110  RH  039%=      5-min Rain = 0
KCH1 120112Z 06004KT 02/M11 A3021 RMK A01 T00151110  RH  039%=      5-min Rain = 0
KCH1 120113Z 06004KT 02/M11 A3021 RMK A01 T00151110  RH  039%=      5-min Rain = 0
KCH1 120114Z 06004KT 02/M11 A3021 RMK A01 T00151110  RH  039%=      5-min Rain = 0
KCH1 120115Z 06004KT 02/M11 A3021 RMK A01 T00151109  RH  039%=      5-min Rain = 0
KCH1 120116Z 06004KT 01/M11 A3021 RMK A01 T00141110  RH  039%=      5-min Rain = 0
KCH1 120117Z 06004KT 01/M11 A3021 RMK A01 T00141110  RH  039%=      5-min Rain = 0
KCH1 120118Z 06004KT 01/M11 A3021 RMK A01 T00141109  RH  039%=      5-min Rain = 0
KCH1 120119Z 05004KT 01/M11 A3021 RMK A01 T00141110  RH  039%=      5-min Rain = 0
KCH1 120120Z 05004KT 01/M11 A3021 RMK A01 T00141110  RH  039%=      5-min Rain = 0
KCH1 120121Z 05004KT 01/M11 A3021 RMK A01 T00141109  RH  040%=      5-min Rain = 0
KCH1 120122Z 05004KT 01/M11 A3021 RMK A01 T00131109  RH  040%=      5-min Rain = 0
KCH1 120123Z 05004KT 01/M11 A3021 RMK A01 T00131109  RH  040%=      5-min Rain = 0
KCH1 120124Z 05004KT 01/M11 A3021 RMK A01 T00121110  RH  040%=      5-min Rain = 0
KCH1 120125Z 05004KT 01/M11 A3021 RMK A01 T00111110  RH  040%=      5-min Rain = 0
KCH1 120126Z 05003KT 01/M11 A3022 RMK A01 T00111110  RH  040%=      5-min Rain = 0
KCH1 120127Z 05003KT 01/M11 A3022 RMK A01 T00111109  RH  040%=      5-min Rain = 0
KCH1 120128Z 06002KT 01/M11 A3022 RMK A01 T00101109  RH  040%=      5-min Rain = 0
KCH1 120129Z 06002KT 01/M11 A3022 RMK A01 T00111109  RH  041%=      5-min Rain = 0
KCH1 120130Z 10002KT 01/M11 A3022 RMK A01 T00101110  RH  040%=      5-min Rain = 0
KCH1 120131Z 10002KT 01/M11 A3022 RMK A01 T00091110  RH  041%=      5-min Rain = 0
KCH1 120132Z 10002KT 01/M11 A3022 RMK A01 T00081110  RH  041%=      5-min Rain = 0
KCH1 120133Z 09002KT 01/M11 A3022 RMK A01 T00081110  RH  041%=      5-min Rain = 0
KCH1 120134Z 08003KT 01/M11 A3022 RMK A01 T00081109  RH  041%=      5-min Rain = 0
KCH1 120135Z 08003KT 01/M11 A3022 RMK A01 T00081109  RH  041%=      5-min Rain = 0
KCH1 120136Z 08003KT 01/M11 A3022 RMK A01 T00091109  RH  041%=      5-min Rain = 0
KCH1 120137Z 07003KT 01/M11 A3022 RMK A01 T00091109  RH  041%=      5-min Rain = 0
KCH1 120138Z 07003KT 01/M11 A3022 RMK A01 T00101109  RH  041%=      5-min Rain = 0
KCH1 120139Z 07003KT 01/M11 A3022 RMK A01 T00101109  RH  041%=      5-min Rain = 0
KCH1 120140Z 07003KT 01/M11 A3022 RMK A01 T00101108  RH  041%=      5-min Rain = 0
KCH1 120141Z 07003KT 01/M11 A3022 RMK A01 T00101109  RH  041%=      5-min Rain = 0
KCH1 120142Z 07003KT 01/M11 A3022 RMK A01 T00091109  RH  041%=      5-min Rain = 0
KCH1 120143Z 06003KT 01/M11 A3022 RMK A01 T00081109  RH  041%=      5-min Rain = 0
KCH1 120144Z 06003KT 01/M11 A3022 RMK A01 T00081109  RH  041%=      5-min Rain = 0
KCH1 120145Z 06003KT 01/M11 A3022 RMK A01 T00081109  RH  041%=      5-min Rain = 0
KCH1 120146Z 06004KT 01/M11 A3022 RMK A01 T00081109  RH  041%=      5-min Rain = 0
KCH1 120147Z 05004KT 01/M11 A3022 RMK A01 T00081109  RH  041%=      5-min Rain = 0
KCH1 120148Z 05004KT 01/M11 A3022 RMK A01 T00061110  RH  041%=      5-min Rain = 0
KCH1 120149Z 05004KT 01/M11 A3023 RMK A01 T00051111  RH  041%=      5-min Rain = 0
KCH1 120150Z 05004KT 00/M11 A3023 RMK A01 T00041111  RH  042%=      5-min Rain = 0
KCH1 120151Z 05004KT 00/M11 A3023 RMK A01 T00031111  RH  042%=      5-min Rain = 0
KCH1 120152Z 05004KT 00/M11 A3023 RMK A01 T00021111  RH  042%=      5-min Rain = 0
KCH1 120153Z 05004KT 00/M11 A3023 RMK A01 T00021111  RH  042%=      5-min Rain = 0
KCH1 120154Z 05004KT 00/M11 A3023 RMK A01 T00021111  RH  043%=      5-min Rain = 0
KCH1 120155Z 05004KT 00/M11 A3023 RMK A01 T00011111  RH  043%=      5-min Rain = 0
KCH1 120156Z 05004KT 00/11 A3023 RMK A01 T00000-111  RH  043%=      5-min Rain = 0
KCH1 120157Z 05005KT 00/11 A3023 RMK A01 T00-00-111  RH  043%=      5-min Rain = 0
KCH1 120158Z 05005KT M00/M11 A3023 RMK A01 T10011111  RH  043%=      5-min Rain = 0
KCH1 120159Z 05004KT 00/11 A3023 RMK A01 T00-00-110  RH  043%=      5-min Rain = 0
KCH1 120200Z 05004KT 00/11 A3023 RMK A01 T00-00-110  RH  043%=      5-min Rain = 0
KCH1 120201Z 05004KT 00/11 A3023 RMK A01 T00-00-111  RH  043%=      5-min Rain = 0
KCH1 120202Z 05004KT 00/11 A3023 RMK A01 T00-00-111  RH  043%=      5-min Rain = 0
KCH1 120203Z 05004KT 00/11 A3023 RMK A01 T00-00-111  RH  043%=      5-min Rain = 0
KCH1 120204Z 05004KT M00/M11 A3023 RMK A01 T10011112  RH  043%=      5-min Rain = 0
KCH1 120205Z 05004KT M00/M11 A3023 RMK A01 T10011112  RH  043%=      5-min Rain = 0
KCH1 120206Z 05004KT M00/M11 A3023 RMK A01 T10021111  RH  043%=      5-min Rain = 0
KCH1 120207Z 05004KT M00/M11 A3023 RMK A01 T10021111  RH  044%=      5-min Rain = 0
KCH1 120208Z 06003KT M00/M11 A3023 RMK A01 T10021111  RH  044%=      5-min Rain = 0
KCH1 120209Z 06003KT M00/M11 A3023 RMK A01 T10041112  RH  044%=      5-min Rain = 0
KCH1 120210Z 05003KT M01/M11 A3023 RMK A01 T10051113  RH  044%=      5-min Rain = 0
KCH1 120211Z 05003KT M01/M11 A3023 RMK A01 T10061113  RH  044%=      5-min Rain = 0
KCH1 120212Z 05003KT M01/M11 A3023 RMK A01 T10061113  RH  045%=      5-min Rain = 0
KCH1 120213Z 06003KT M01/M11 A3024 RMK A01 T10071112  RH  045%=      5-min Rain = 0
KCH1 120214Z 06003KT M01/M11 A3024 RMK A01 T10071112  RH  045%=      5-min Rain = 0
KCH1 120215Z 06003KT M01/M11 A3024 RMK A01 T10071112  RH  045%=      5-min Rain = 0
KCH1 120216Z 06003KT M01/M11 A3024 RMK A01 T10071112  RH  045%=      5-min Rain = 0
KCH1 120217Z 06003KT M01/M11 A3024 RMK A01 T10071112  RH  045%=      5-min Rain = 0
KCH1 120218Z 06003KT M01/M11 A3024 RMK A01 T10081113  RH  045%=      5-min Rain = 0
KCH1 120219Z 06003KT M01/M11 A3024 RMK A01 T10081112  RH  045%=      5-min Rain = 0
KCH1 120220Z 06003KT M01/M11 A3024 RMK A01 T10081112  RH  045%=      5-min Rain = 0
KCH1 120221Z 07003KT M01/M11 A3024 RMK A01 T10081112  RH  045%=      5-min Rain = 0
KCH1 120222Z 07003KT M01/M11 A3024 RMK A01 T10081112  RH  045%=      5-min Rain = 0
KCH1 120223Z 07002KT M01/M11 A3024 RMK A01 T10071112  RH  045%=      5-min Rain = 0
KCH1 120224Z 07002KT M01/M11 A3024 RMK A01 T10071112  RH  045%=      5-min Rain = 0
KCH1 120225Z 07003KT M01/M11 A3024 RMK A01 T10061112  RH  045%=      5-min Rain = 0
KCH1 120226Z 07002KT M01/M11 A3024 RMK A01 T10061112  RH  045%=      5-min Rain = 0
KCH1 120227Z 06003KT M01/M11 A3024 RMK A01 T10061111  RH  045%=      5-min Rain = 0
KCH1 120228Z 06003KT M01/M11 A3024 RMK A01 T10061112  RH  045%=      5-min Rain = 0
KCH1 120229Z 06003KT M01/M11 A3024 RMK A01 T10061112  RH  045%=      5-min Rain = 0
KCH1 120230Z 06002KT M01/M11 A3025 RMK A01 T10071112  RH  045%=      5-min Rain = 0
KCH1 120231Z 05003KT M01/M11 A3025 RMK A01 T10071111  RH  045%=      5-min Rain = 0
KCH1 120232Z 05002KT M01/M11 A3025 RMK A01 T10061110  RH  045%=      5-min Rain = 0
KCH1 120233Z 05002KT M01/M11 A3025 RMK A01 T10061111  RH  045%=      5-min Rain = 0
KCH1 120234Z 05002KT M01/M11 A3025 RMK A01 T10061111  RH  045%=      5-min Rain = 0
KCH1 120235Z 06002KT M01/M11 A3025 RMK A01 T10061111  RH  045%=      5-min Rain = 0
KCH1 120236Z 06002KT M01/M11 A3025 RMK A01 T10051111  RH  045%=      5-min Rain = 0
KCH1 120237Z 07002KT M01/M11 A3025 RMK A01 T10051111  RH  045%=      5-min Rain = 0
KCH1 120238Z 06002KT M01/M11 A3025 RMK A01 T10051111  RH  045%=      5-min Rain = 0
KCH1 120239Z 06002KT M01/M11 A3025 RMK A01 T10051111  RH  045%=      5-min Rain = 0
KCH1 120240Z 06002KT M01/M11 A3025 RMK A01 T10051111  RH  045%=      5-min Rain = 0
KCH1 120241Z 06003KT M01/M11 A3025 RMK A01 T10051111  RH  045%=      5-min Rain = 0
KCH1 120242Z 06003KT M01/M11 A3025 RMK A01 T10051111  RH  045%=      5-min Rain = 0
KCH1 120243Z 06003KT M01/M11 A3025 RMK A01 T10051111  RH  044%=      5-min Rain = 0
KCH1 120244Z 06003KT M01/M11 A3025 RMK A01 T10051111  RH  044%=      5-min Rain = 0
KCH1 120245Z 05003KT M01/M11 A3025 RMK A01 T10061112  RH  044%=      5-min Rain = 0
KCH1 120246Z 04003KT M01/M11 A3025 RMK A01 T10071112  RH  045%=      5-min Rain = 0
KCH1 120247Z 05003KT M01/M11 A3025 RMK A01 T10081113  RH  045%=      5-min Rain = 0
KCH1 120248Z 05003KT M01/M11 A3025 RMK A01 T10091113  RH  045%=      5-min Rain = 0
KCH1 120249Z 05003KT M01/M11 A3025 RMK A01 T10101113  RH  045%=      5-min Rain = 0
KCH1 120250Z 04003KT M01/M11 A3025 RMK A01 T10101113  RH  046%=      5-min Rain = 0
KCH1 120251Z 04003KT M01/M11 A3025 RMK A01 T10101112  RH  046%=      5-min Rain = 0
KCH1 120252Z 04003KT M01/M11 A3025 RMK A01 T10111112  RH  046%=      5-min Rain = 0
KCH1 120253Z 04003KT M01/M11 A3025 RMK A01 T10111113  RH  046%=      5-min Rain = 0
KCH1 120254Z 04003KT M01/M11 A3025 RMK A01 T10121113  RH  046%=      5-min Rain = 0
KCH1 120255Z 04003KT M01/M11 A3025 RMK A01 T10121113  RH  046%=      5-min Rain = 0
KCH1 120256Z 04003KT M01/M11 A3025 RMK A01 T10131113  RH  046%=      5-min Rain = 0
KCH1 120257Z 04003KT M01/M11 A3025 RMK A01 T10141113  RH  047%=      5-min Rain = 0
KCH1 120258Z 04003KT M02/M11 A3025 RMK A01 T10151113  RH  047%=      5-min Rain = 0
KCH1 120259Z 04003KT M02/M11 A3025 RMK A01 T10151113  RH  047%=      5-min Rain = 0
KCH1 120300Z 04003KT M02/M11 A3025 RMK A01 T10151113  RH  047%=      5-min Rain = 0
KCH1 120301Z 04003KT M02/M11 A3025 RMK A01 T10151113  RH  048%=      5-min Rain = 0
KCH1 120302Z 03003KT M02/M11 A3026 RMK A01 T10151112  RH  048%=      5-min Rain = 0
KCH1 120303Z 03003KT M01/M11 A3026 RMK A01 T10141111  RH  047%=      5-min Rain = 0
KCH1 120304Z 04003KT M01/M11 A3026 RMK A01 T10121110  RH  047%=      5-min Rain = 0
KCH1 120305Z 04003KT M01/M11 A3026 RMK A01 T10121111  RH  047%=      5-min Rain = 0
KCH1 120306Z 04003KT M01/M11 A3026 RMK A01 T10121112  RH  047%=      5-min Rain = 0
KCH1 120307Z 04003KT M01/M11 A3026 RMK A01 T10111111  RH  047%=      5-min Rain = 0
KCH1 120308Z 04003KT M01/M11 A3025 RMK A01 T10121112  RH  047%=      5-min Rain = 0
KCH1 120309Z 04003KT M01/M11 A3025 RMK A01 T10111112  RH  046%=      5-min Rain = 0
KCH1 120310Z 04003KT M01/M11 A3026 RMK A01 T10121113  RH  046%=      5-min Rain = 0
KCH1 120311Z 03003KT M01/M11 A3026 RMK A01 T10131113  RH  047%=      5-min Rain = 0
KCH1 120312Z 02003KT M01/M11 A3026 RMK A01 T10131112  RH  047%=      5-min Rain = 0
KCH1 120313Z 02004KT M01/M11 A3026 RMK A01 T10141113  RH  047%=      5-min Rain = 0
KCH1 120314Z 02004KT M01/M11 A3026 RMK A01 T10141112  RH  047%=      5-min Rain = 0
KCH1 120315Z 03004KT M01/M11 A3026 RMK A01 T10141112  RH  047%=      5-min Rain = 0
KCH1 120316Z 03004KT M01/M11 A3026 RMK A01 T10141113  RH  047%=      5-min Rain = 0
KCH1 120317Z 03004KT M02/M12 A3025 RMK A01 T10161115  RH  047%=      5-min Rain = 0
KCH1 120318Z 03004KT M02/M12 A3025 RMK A01 T10201118  RH  047%=      5-min Rain = 0
KCH1 120319Z 03004KT M02/M12 A3026 RMK A01 T10241119  RH  048%=      5-min Rain = 0
KCH1 120320Z 03004KT M03/M12 A3026 RMK A01 T10261119  RH  049%=      5-min Rain = 0
KCH1 120321Z 02004KT M03/M12 A3026 RMK A01 T10271118  RH  050%=      5-min Rain = 0
KCH1 120322Z 02004KT M03/M12 A3026 RMK A01 T10281118  RH  050%=      5-min Rain = 0
KCH1 120323Z 02004KT M03/M12 A3026 RMK A01 T10281116  RH  051%=      5-min Rain = 0
KCH1 120324Z 02004KT M03/M11 A3026 RMK A01 T10271114  RH  051%=      5-min Rain = 0
KCH1 120325Z 02004KT M02/M11 A3026 RMK A01 T10241112  RH  051%=      5-min Rain = 0
KCH1 120326Z 02004KT M02/M11 A3026 RMK A01 T10231112  RH  050%=      5-min Rain = 0
KCH1 120327Z 03004KT M02/M11 A3026 RMK A01 T10211111  RH  050%=      5-min Rain = 0
KCH1 120328Z 03004KT M02/M11 A3026 RMK A01 T10201111  RH  050%=      5-min Rain = 0
KCH1 120329Z 03004KT M02/M11 A3026 RMK A01 T10181111  RH  049%=      5-min Rain = 0
KCH1 120330Z 03003KT M02/M11 A3026 RMK A01 T10181112  RH  049%=      5-min Rain = 0
KCH1 120331Z 03004KT M02/M11 A3026 RMK A01 T10181113  RH  048%=      5-min Rain = 0
KCH1 120332Z 03004KT M02/M12 A3026 RMK A01 T10191115  RH  048%=      5-min Rain = 0
KCH1 120333Z 03003KT M02/M12 A3026 RMK A01 T10211116  RH  048%=      5-min Rain = 0
KCH1 120334Z 03002KT M02/M12 A3026 RMK A01 T10221116  RH  049%=      5-min Rain = 0
KCH1 120335Z 03002KT M02/M11 A3026 RMK A01 T10221114  RH  049%=      5-min Rain = 0
KCH1 120336Z 03002KT M02/M11 A3026 RMK A01 T10221113  RH  050%=      5-min Rain = 0
KCH1 120337Z 03002KT M02/M11 A3026 RMK A01 T10211113  RH  050%=      5-min Rain = 0
KCH1 120338Z 03002KT M02/M11 A3026 RMK A01 T10211113  RH  049%=      5-min Rain = 0
KCH1 120339Z 03003KT M02/M11 A3026 RMK A01 T10201112  RH  049%=      5-min Rain = 0
KCH1 120340Z 02003KT M02/M11 A3026 RMK A01 T10201113  RH  049%=      5-min Rain = 0
KCH1 120341Z 02003KT M02/M11 A3026 RMK A01 T10201113  RH  049%=      5-min Rain = 0
KCH1 120342Z 02003KT M02/M11 A3026 RMK A01 T10191113  RH  049%=      5-min Rain = 0
KCH1 120343Z 03003KT M02/M11 A3026 RMK A01 T10201113  RH  049%=      5-min Rain = 0
KCH1 120344Z 03003KT M02/M11 A3026 RMK A01 T10201113  RH  049%=      5-min Rain = 0
KCH1 120345Z 04003KT M02/M11 A3026 RMK A01 T10201113  RH  049%=      5-min Rain = 0
KCH1 120346Z 04003KT M02/M11 A3026 RMK A01 T10201113  RH  049%=      5-min Rain = 0
KCH1 120347Z 04003KT M02/M11 A3026 RMK A01 T10191112  RH  049%=      5-min Rain = 0
KCH1 120348Z 04002KT M02/M11 A3026 RMK A01 T10201112  RH  049%=      5-min Rain = 0
KCH1 120349Z 04003KT M02/M11 A3026 RMK A01 T10201113  RH  049%=      5-min Rain = 0
KCH1 120350Z 03003KT M02/M11 A3026 RMK A01 T10201113  RH  049%=      5-min Rain = 0
KCH1 120351Z 02003KT M02/M11 A3026 RMK A01 T10211113  RH  049%=      5-min Rain = 0
KCH1 120352Z 03003KT M02/M11 A3026 RMK A01 T10221114  RH  049%=      5-min Rain = 0
KCH1 120353Z 03003KT M02/M11 A3026 RMK A01 T10221114  RH  049%=      5-min Rain = 0
KCH1 120354Z 03003KT M02/M12 A3026 RMK A01 T10231115  RH  049%=      5-min Rain = 0
KCH1 120355Z 03003KT M02/M12 A3027 RMK A01 T10241115  RH  050%=      5-min Rain = 0
KCH1 120356Z 03003KT M03/M12 A3027 RMK A01 T10251115  RH  050%=      5-min Rain = 0
KCH1 120357Z 03003KT M03/M12 A3026 RMK A01 T10251115  RH  050%=      5-min Rain = 0
KCH1 120358Z 02003KT M03/M11 A3026 RMK A01 T10261114  RH  051%=      5-min Rain = 0
KCH1 120359Z 02004KT M03/M11 A3026 RMK A01 T10251113  RH  051%=      5-min Rain = 0
KCH1 120400Z 02004KT M03/M11 A3026 RMK A01 T10261113  RH  051%=      5-min Rain = 0
KCH1 120401Z 02004KT M03/M11 A3026 RMK A01 T10261114  RH  051%=      5-min Rain = 0
KCH1 120402Z 02004KT M03/M11 A3026 RMK A01 T10271113  RH  051%=      5-min Rain = 0
KCH1 120403Z 02004KT M03/M11 A3026 RMK A01 T10271113  RH  052%=      5-min Rain = 0
KCH1 120404Z 02003KT M03/M11 A3026 RMK A01 T10271113  RH  052%=      5-min Rain = 0
KCH1 120405Z 02003KT M03/M11 A3026 RMK A01 T10281113  RH  052%=      5-min Rain = 0
KCH1 120406Z 02004KT M03/M11 A3026 RMK A01 T10271113  RH  052%=      5-min Rain = 0
KCH1 120407Z 01004KT M03/M11 A3026 RMK A01 T10281113  RH  052%=      5-min Rain = 0
KCH1 120408Z 02003KT M03/M11 A3026 RMK A01 T10271113  RH  052%=      5-min Rain = 0
KCH1 120409Z 02003KT M03/M11 A3026 RMK A01 T10271113  RH  052%=      5-min Rain = 0
KCH1 120410Z 02003KT M03/M11 A3026 RMK A01 T10271112  RH  052%=      5-min Rain = 0
KCH1 120411Z 02003KT M03/M11 A3026 RMK A01 T10271112  RH  052%=      5-min Rain = 0
KCH1 120412Z 02003KT M03/M11 A3027 RMK A01 T10271113  RH  052%=      5-min Rain = 0
KCH1 120413Z 02003KT M03/M11 A3027 RMK A01 T10271112  RH  052%=      5-min Rain = 0
KCH1 120414Z 02003KT M03/M11 A3027 RMK A01 T10261112  RH  052%=      5-min Rain = 0
KCH1 120415Z 01003KT M03/M11 A3027 RMK A01 T10261112  RH  052%=      5-min Rain = 0
KCH1 120416Z 01003KT M03/M11 A3027 RMK A01 T10261112  RH  052%=      5-min Rain = 0
KCH1 120417Z 01003KT M03/M11 A3027 RMK A01 T10261111  RH  052%=      5-min Rain = 0
KCH1 120418Z 01003KT M03/M11 A3027 RMK A01 T10261111  RH  052%=      5-min Rain = 0
KCH1 120419Z 01003KT M03/M11 A3027 RMK A01 T10261111  RH  052%=      5-min Rain = 0
KCH1 120420Z 01003KT M03/M11 A3026 RMK A01 T10251110  RH  052%=      5-min Rain = 0
KCH1 120421Z 02003KT M03/M11 A3026 RMK A01 T10251111  RH  052%=      5-min Rain = 0
KCH1 120422Z 02003KT M03/M11 A3026 RMK A01 T10251110  RH  052%=      5-min Rain = 0
KCH1 120423Z 03003KT M02/M11 A3026 RMK A01 T10241110  RH  052%=      5-min Rain = 0
KCH1 120424Z 02002KT M02/M11 A3026 RMK A01 T10231109  RH  052%=      5-min Rain = 0
KCH1 120425Z 03002KT M02/M11 A3026 RMK A01 T10231109  RH  052%=      5-min Rain = 0
KCH1 120426Z 02003KT M02/M11 A3026 RMK A01 T10231109  RH  051%=      5-min Rain = 0
KCH1 120427Z 02003KT M02/M11 A3026 RMK A01 T10231110  RH  051%=      5-min Rain = 0
KCH1 120428Z 02003KT M02/M11 A3026 RMK A01 T10231110  RH  051%=      5-min Rain = 0
KCH1 120429Z 02003KT M02/M11 A3026 RMK A01 T10241111  RH  051%=      5-min Rain = 0
KCH1 120430Z 03003KT M02/M11 A3026 RMK A01 T10241111  RH  051%=      5-min Rain = 0
KCH1 120431Z 03003KT M02/M11 A3026 RMK A01 T10241111  RH  051%=      5-min Rain = 0
KCH1 120432Z 02002KT M02/M11 A3026 RMK A01 T10241111  RH  051%=      5-min Rain = 0
KCH1 120433Z 02002KT M02/M11 A3027 RMK A01 T10241110  RH  052%=      5-min Rain = 0
KCH1 120434Z 02002KT M02/M11 A3027 RMK A01 T10241110  RH  052%=      5-min Rain = 0
KCH1 120435Z 02002KT M02/M11 A3027 RMK A01 T10241110  RH  052%=      5-min Rain = 0
KCH1 120436Z 02002KT M02/M11 A3027 RMK A01 T10241110  RH  052%=      5-min Rain = 0
KCH1 120437Z 03002KT M02/M11 A3027 RMK A01 T10241110  RH  052%=      5-min Rain = 0
KCH1 120438Z 03002KT M02/M11 A3027 RMK A01 T10231109  RH  052%=      5-min Rain = 0
KCH1 120439Z 04002KT M02/M11 A3027 RMK A01 T10231109  RH  052%=      5-min Rain = 0
KCH1 120440Z 05002KT M02/M11 A3027 RMK A01 T10221109  RH  051%=      5-min Rain = 0
KCH1 120441Z 05002KT M02/M11 A3027 RMK A01 T10221109  RH  051%=      5-min Rain = 0
KCH1 120442Z 05001KT M02/M11 A3027 RMK A01 T10221110  RH  051%=      5-min Rain = 0
KCH1 120443Z 05001KT M02/M11 A3027 RMK A01 T10221109  RH  051%=      5-min Rain = 0
KCH1 120444Z 05001KT M02/M11 A3027 RMK A01 T10221109  RH  051%=      5-min Rain = 0
KCH1 120445Z 05000KT M02/M11 A3027 RMK A01 T10221109  RH  051%=      5-min Rain = 0
KCH1 120446Z 00000KT M02/M11 A3027 RMK A01 T10211109  RH  051%=      5-min Rain = 0
KCH1 120447Z 04000KT M02/M11 A3027 RMK A01 T10201108  RH  051%=      5-min Rain = 0
KCH1 120448Z 03001KT M02/M11 A3027 RMK A01 T10201108  RH  051%=      5-min Rain = 0
KCH1 120449Z 00001KT M02/M11 A3027 RMK A01 T10191108  RH  051%=      5-min Rain = 0
KCH1 120450Z 00001KT M02/M11 A3027 RMK A01 T10191108  RH  051%=      5-min Rain = 0
KCH1 120451Z 35001KT M02/M11 A3027 RMK A01 T10191107  RH  051%=      5-min Rain = 0
KCH1 120452Z 35001KT M02/M11 A3027 RMK A01 T10191107  RH  051%=      5-min Rain = 0
KCH1 120453Z 35001KT M02/M11 A3027 RMK A01 T10181106  RH  051%=      5-min Rain = 0
KCH1 120454Z 36001KT M02/M11 A3027 RMK A01 T10181106  RH  051%=      5-min Rain = 0
KCH1 120455Z 35001KT M02/M11 A3027 RMK A01 T10181105  RH  051%=      5-min Rain = 0
KCH1 120456Z 35002KT M02/M10 A3027 RMK A01 T10171104  RH  052%=      5-min Rain = 0
KCH1 120457Z 36002KT M02/M10 A3027 RMK A01 T10171104  RH  052%=      5-min Rain = 0
KCH1 120458Z 00002KT M02/M10 A3027 RMK A01 T10171104  RH  052%=      5-min Rain = 0
KCH1 120459Z 00002KT M02/M10 A3027 RMK A01 T10171104  RH  051%=      5-min Rain = 0
KCH1 120500Z 00001KT M02/M10 A3027 RMK A01 T10161104  RH  051%=      5-min Rain = 0
KCH1 120501Z 01002KT M02/M10 A3027 RMK A01 T10171104  RH  051%=      5-min Rain = 0
KCH1 120502Z 01001KT M02/M10 A3027 RMK A01 T10171104  RH  051%=      5-min Rain = 0
KCH1 120503Z 01001KT M02/M10 A3027 RMK A01 T10171104  RH  051%=      5-min Rain = 0
KCH1 120504Z 02001KT M02/M10 A3027 RMK A01 T10161104  RH  051%=      5-min Rain = 0
KCH1 120505Z 03001KT M02/M10 A3027 RMK A01 T10161104  RH  051%=      5-min Rain = 0
KCH1 120506Z 03000KT M02/M11 A3027 RMK A01 T10161105  RH  051%=      5-min Rain = 0
KCH1 120507Z 03000KT M02/M11 A3027 RMK A01 T10161106  RH  051%=      5-min Rain = 0
KCH1 120508Z 02001KT M02/M11 A3027 RMK A01 T10171106  RH  050%=      5-min Rain = 0
KCH1 120509Z 01001KT M02/M11 A3027 RMK A01 T10171107  RH  050%=      5-min Rain = 0
KCH1 120510Z 02002KT M02/M11 A3027 RMK A01 T10171107  RH  050%=      5-min Rain = 0
KCH1 120511Z 03002KT M02/M11 A3026 RMK A01 T10171107  RH  050%=      5-min Rain = 0
KCH1 120512Z 03002KT M02/M11 A3026 RMK A01 T10171107  RH  050%=      5-min Rain = 0
KCH1 120513Z 03002KT M02/M11 A3026 RMK A01 T10161107  RH  050%=      5-min Rain = 0
KCH1 120514Z 04001KT M02/M11 A3027 RMK A01 T10161107  RH  050%=      5-min Rain = 0
KCH1 120515Z 05001KT M02/M11 A3027 RMK A01 T10161107  RH  050%=      5-min Rain = 0
KCH1 120516Z 05000KT M02/M11 A3027 RMK A01 T10171107  RH  050%=      5-min Rain = 0
KCH1 120517Z 00000KT M02/M11 A3027 RMK A01 T10171106  RH  051%=      5-min Rain = 0
KCH1 120518Z 00000KT M02/M11 A3027 RMK A01 T10181106  RH  051%=      5-min Rain = 0
KCH1 120519Z 10001KT M02/M11 A3027 RMK A01 T10191106  RH  052%=      5-min Rain = 0
KCH1 120520Z 09001KT M02/M11 A3027 RMK A01 T10191106  RH  051%=      5-min Rain = 0
KCH1 120521Z 08002KT M02/M11 A3027 RMK A01 T10191107  RH  051%=      5-min Rain = 0
KCH1 120522Z 08002KT M02/M11 A3027 RMK A01 T10181107  RH  051%=      5-min Rain = 0
KCH1 120523Z 08001KT M02/M11 A3027 RMK A01 T10181107  RH  051%=      5-min Rain = 0
KCH1 120524Z 08001KT M02/M11 A3027 RMK A01 T10181107  RH  051%=      5-min Rain = 0
KCH1 120525Z 08001KT M02/M11 A3027 RMK A01 T10181107  RH  050%=      5-min Rain = 0
KCH1 120526Z 08000KT M02/M11 A3027 RMK A01 T10181107  RH  050%=      5-min Rain = 0
KCH1 120527Z 06001KT M02/M11 A3027 RMK A01 T10181107  RH  051%=      5-min Rain = 0
KCH1 120528Z 05001KT M02/M11 A3027 RMK A01 T10191107  RH  051%=      5-min Rain = 0
KCH1 120529Z 05001KT M02/M11 A3027 RMK A01 T10191106  RH  051%=      5-min Rain = 0
KCH1 120530Z 05001KT M02/M11 A3027 RMK A01 T10201106  RH  052%=      5-min Rain = 0
KCH1 120531Z 06001KT M02/M11 A3027 RMK A01 T10201106  RH  052%=      5-min Rain = 0
KCH1 120532Z 06001KT M02/M11 A3028 RMK A01 T10211107  RH  052%=      5-min Rain = 0
KCH1 120533Z 05001KT M02/M11 A3028 RMK A01 T10211107  RH  052%=      5-min Rain = 0
KCH1 120534Z 05001KT M02/M11 A3028 RMK A01 T10201106  RH  052%=      5-min Rain = 0
KCH1 120535Z 04001KT M02/M11 A3028 RMK A01 T10201106  RH  052%=      5-min Rain = 0
KCH1 120536Z 02001KT M02/M11 A3028 RMK A01 T10201106  RH  052%=      5-min Rain = 0
KCH1 120537Z 03001KT M02/M11 A3028 RMK A01 T10201106  RH  052%=      5-min Rain = 0
KCH1 120538Z 03001KT M02/M11 A3028 RMK A01 T10211106  RH  052%=      5-min Rain = 0
KCH1 120539Z 03001KT M02/M11 A3028 RMK A01 T10211105  RH  052%=      5-min Rain = 0
KCH1 120540Z 00001KT M02/M11 A3028 RMK A01 T10211106  RH  052%=      5-min Rain = 0
KCH1 120541Z 01001KT M02/M11 A3028 RMK A01 T10211106  RH  052%=      5-min Rain = 0
KCH1 120542Z 01000KT M02/M11 A3028 RMK A01 T10201106  RH  052%=      5-min Rain = 0
KCH1 120543Z 00000KT M02/M11 A3028 RMK A01 T10201106  RH  052%=      5-min Rain = 0
KCH1 120544Z 34001KT M02/M11 A3028 RMK A01 T10201106  RH  052%=      5-min Rain = 0
KCH1 120545Z 33001KT M02/M11 A3028 RMK A01 T10201106  RH  052%=      5-min Rain = 0
KCH1 120546Z 32001KT M02/M11 A3028 RMK A01 T10211106  RH  052%=      5-min Rain = 0
KCH1 120547Z 30001KT M02/M11 A3028 RMK A01 T10221106  RH  052%=      5-min Rain = 0
KCH1 120548Z 29001KT M02/M11 A3028 RMK A01 T10231107  RH  053%=      5-min Rain = 0
KCH1 120549Z 29000KT M02/M11 A3028 RMK A01 T10231107  RH  053%=      5-min Rain = 0
KCH1 120550Z 28000KT M02/M11 A3028 RMK A01 T10221107  RH  052%=      5-min Rain = 0
KCH1 120551Z 26000KT M02/M11 A3028 RMK A01 T10221107  RH  052%=      5-min Rain = 0
KCH1 120552Z 27000KT M02/M11 A3028 RMK A01 T10211106  RH  053%=      5-min Rain = 0
KCH1 120553Z 27000KT M02/M10 A3028 RMK A01 T10211103  RH  053%=      5-min Rain = 0
KCH1 120554Z 00000KT M02/M10 A3028 RMK A01 T10211100  RH  054%=      5-min Rain = 0
KCH1 120555Z 29000KT M02/M10 A3028 RMK A01 T10201099  RH  055%=      5-min Rain = 0
KCH1 120556Z 31000KT M02/M10 A3028 RMK A01 T10201097  RH  056%=      5-min Rain = 0
KCH1 120557Z 31000KT M02/M09 A3028 RMK A01 T10201094  RH  057%=      5-min Rain = 0
KCH1 120558Z 31000KT M02/M09 A3028 RMK A01 T10201092  RH  058%=      5-min Rain = 0
KCH1 120559Z 32000KT M02/M09 A3028 RMK A01 T10201092  RH  058%=      5-min Rain = 0

Page generated in 0.0815 seconds.